﻿<?xml version="1.0" encoding="UTF-8" standalone="no" ?>
<gpx xmlns="http://www.topografix.com/GPX/1/1" creator="CompeGPS" version="1.1" xmlns:xsi="http://www.w3.org/2001/XMLSchema-instance" xsi:schemaLocation="http://www.topografix.com/GPX/1/1 http://www.topografix.com/GPX/1/1/gpx.xsd http://www.garmin.com/xmlschemas/GpxExtensions/v3 http://www.garmin.com/xmlschemas/GpxExtensionsv3.xsd http://www.garmin.com/xmlschemas/TrackPointExtension/v1 http://www.garmin.com/xmlschemas/TrackPointExtensionv1.xsd" xmlns:gpxtpx="http://www.garmin.com/xmlschemas/TrackPointExtension/v1">
  <metadata>
    <link href="http://www.compegps.com">
      <text>CompeGPS TEAM, SL</text>
    </link>
    <time>2015-11-23T18:50:39Z</time>
    <bounds maxlat="44.657617" maxlon="6.907045" minlat="44.644412" minlon="6.846140"/>
  </metadata>
  <trk>
    <name>Rando_193</name>
    <trkseg>
      <trkpt lat="44.657070" lon="6.846140">
        <ele>2043.8</ele>
        <time>2015-07-07T07:21:10Z</time>
      </trkpt>
      <trkpt lat="44.656988" lon="6.846192">
        <ele>2043.5</ele>
        <time>2015-07-07T07:21:17Z</time>
      </trkpt>
      <trkpt lat="44.656910" lon="6.846237">
        <ele>2043.2</ele>
        <time>2015-07-07T07:21:24Z</time>
      </trkpt>
      <trkpt lat="44.656845" lon="6.846305">
        <ele>2043.4</ele>
        <time>2015-07-07T07:21:32Z</time>
      </trkpt>
      <trkpt lat="44.656793" lon="6.846400">
        <ele>2044.2</ele>
        <time>2015-07-07T07:21:43Z</time>
      </trkpt>
      <trkpt lat="44.656790" lon="6.846415">
        <ele>2044.3</ele>
        <time>2015-07-07T07:21:44Z</time>
      </trkpt>
      <trkpt lat="44.656735" lon="6.846613">
        <ele>2046.9</ele>
        <time>2015-07-07T07:21:57Z</time>
      </trkpt>
      <trkpt lat="44.656713" lon="6.846722">
        <ele>2047.7</ele>
        <time>2015-07-07T07:22:04Z</time>
      </trkpt>
      <trkpt lat="44.656672" lon="6.846830">
        <ele>2047.8</ele>
        <time>2015-07-07T07:22:13Z</time>
      </trkpt>
      <trkpt lat="44.656613" lon="6.846920">
        <ele>2048.0</ele>
        <time>2015-07-07T07:22:22Z</time>
      </trkpt>
      <trkpt lat="44.656555" lon="6.847000">
        <ele>2048.2</ele>
        <time>2015-07-07T07:22:31Z</time>
      </trkpt>
      <trkpt lat="44.656502" lon="6.847088">
        <ele>2048.6</ele>
        <time>2015-07-07T07:22:41Z</time>
      </trkpt>
      <trkpt lat="44.656450" lon="6.847185">
        <ele>2049.1</ele>
        <time>2015-07-07T07:22:50Z</time>
      </trkpt>
      <trkpt lat="44.656445" lon="6.847192">
        <ele>2049.2</ele>
        <time>2015-07-07T07:22:51Z</time>
      </trkpt>
      <trkpt lat="44.656352" lon="6.847375">
        <ele>2050.7</ele>
        <time>2015-07-07T07:23:09Z</time>
      </trkpt>
      <trkpt lat="44.656297" lon="6.847473">
        <ele>2051.6</ele>
        <time>2015-07-07T07:23:18Z</time>
      </trkpt>
      <trkpt lat="44.656247" lon="6.847568">
        <ele>2053.1</ele>
        <time>2015-07-07T07:23:26Z</time>
      </trkpt>
      <trkpt lat="44.656200" lon="6.847670">
        <ele>2054.8</ele>
        <time>2015-07-07T07:23:34Z</time>
      </trkpt>
      <trkpt lat="44.656143" lon="6.847760">
        <ele>2056.3</ele>
        <time>2015-07-07T07:23:44Z</time>
      </trkpt>
      <trkpt lat="44.656105" lon="6.847863">
        <ele>2057.9</ele>
        <time>2015-07-07T07:23:52Z</time>
      </trkpt>
      <trkpt lat="44.656103" lon="6.847878">
        <ele>2058.1</ele>
        <time>2015-07-07T07:23:53Z</time>
      </trkpt>
      <trkpt lat="44.656062" lon="6.848088">
        <ele>2061.1</ele>
        <time>2015-07-07T07:24:09Z</time>
      </trkpt>
      <trkpt lat="44.656022" lon="6.848198">
        <ele>2062.6</ele>
        <time>2015-07-07T07:24:17Z</time>
      </trkpt>
      <trkpt lat="44.655997" lon="6.848317">
        <ele>2064.2</ele>
        <time>2015-07-07T07:24:26Z</time>
      </trkpt>
      <trkpt lat="44.655968" lon="6.848427">
        <ele>2066.0</ele>
        <time>2015-07-07T07:24:38Z</time>
      </trkpt>
      <trkpt lat="44.655935" lon="6.848533">
        <ele>2067.5</ele>
        <time>2015-07-07T07:24:46Z</time>
      </trkpt>
      <trkpt lat="44.655927" lon="6.848650">
        <ele>2069.4</ele>
        <time>2015-07-07T07:24:55Z</time>
      </trkpt>
      <trkpt lat="44.655923" lon="6.848663">
        <ele>2069.6</ele>
        <time>2015-07-07T07:24:56Z</time>
      </trkpt>
      <trkpt lat="44.655945" lon="6.848892">
        <ele>2073.5</ele>
        <time>2015-07-07T07:25:12Z</time>
      </trkpt>
      <trkpt lat="44.655953" lon="6.849007">
        <ele>2075.3</ele>
        <time>2015-07-07T07:25:20Z</time>
      </trkpt>
      <trkpt lat="44.655955" lon="6.849128">
        <ele>2077.4</ele>
        <time>2015-07-07T07:25:32Z</time>
      </trkpt>
      <trkpt lat="44.656003" lon="6.849230">
        <ele>2079.4</ele>
        <time>2015-07-07T07:25:43Z</time>
      </trkpt>
      <trkpt lat="44.656005" lon="6.849343">
        <ele>2081.0</ele>
        <time>2015-07-07T07:25:50Z</time>
      </trkpt>
      <trkpt lat="44.656015" lon="6.849463">
        <ele>2082.9</ele>
        <time>2015-07-07T07:26:00Z</time>
      </trkpt>
      <trkpt lat="44.656018" lon="6.849475">
        <ele>2083.2</ele>
        <time>2015-07-07T07:26:01Z</time>
      </trkpt>
      <trkpt lat="44.655975" lon="6.849695">
        <ele>2085.9</ele>
        <time>2015-07-07T07:26:20Z</time>
      </trkpt>
      <trkpt lat="44.655943" lon="6.849812">
        <ele>2087.2</ele>
        <time>2015-07-07T07:26:31Z</time>
      </trkpt>
      <trkpt lat="44.655905" lon="6.849918">
        <ele>2088.0</ele>
        <time>2015-07-07T07:26:41Z</time>
      </trkpt>
      <trkpt lat="44.655883" lon="6.850040">
        <ele>2089.7</ele>
        <time>2015-07-07T07:26:52Z</time>
      </trkpt>
      <trkpt lat="44.655868" lon="6.850158">
        <ele>2091.5</ele>
        <time>2015-07-07T07:27:03Z</time>
      </trkpt>
      <trkpt lat="44.655862" lon="6.850168">
        <ele>2091.6</ele>
        <time>2015-07-07T07:27:04Z</time>
      </trkpt>
      <trkpt lat="44.655828" lon="6.850395">
        <ele>2095.0</ele>
        <time>2015-07-07T07:27:27Z</time>
      </trkpt>
      <trkpt lat="44.655795" lon="6.850508">
        <ele>2096.7</ele>
        <time>2015-07-07T07:27:37Z</time>
      </trkpt>
      <trkpt lat="44.655742" lon="6.850593">
        <ele>2097.5</ele>
        <time>2015-07-07T07:27:46Z</time>
      </trkpt>
      <trkpt lat="44.655718" lon="6.850702">
        <ele>2099.3</ele>
        <time>2015-07-07T07:27:55Z</time>
      </trkpt>
      <trkpt lat="44.655692" lon="6.850822">
        <ele>2100.9</ele>
        <time>2015-07-07T07:28:10Z</time>
      </trkpt>
      <trkpt lat="44.655692" lon="6.850830">
        <ele>2100.9</ele>
        <time>2015-07-07T07:28:11Z</time>
      </trkpt>
      <trkpt lat="44.655692" lon="6.851060">
        <ele>2104.4</ele>
        <time>2015-07-07T07:28:29Z</time>
      </trkpt>
      <trkpt lat="44.655745" lon="6.851162">
        <ele>2106.6</ele>
        <time>2015-07-07T07:28:39Z</time>
      </trkpt>
      <trkpt lat="44.655810" lon="6.851243">
        <ele>2108.5</ele>
        <time>2015-07-07T07:28:50Z</time>
      </trkpt>
      <trkpt lat="44.655887" lon="6.851308">
        <ele>2111.2</ele>
        <time>2015-07-07T07:29:00Z</time>
      </trkpt>
      <trkpt lat="44.655930" lon="6.851407">
        <ele>2114.0</ele>
        <time>2015-07-07T07:29:11Z</time>
      </trkpt>
      <trkpt lat="44.655877" lon="6.851487">
        <ele>2113.7</ele>
        <time>2015-07-07T07:29:21Z</time>
      </trkpt>
      <trkpt lat="44.655865" lon="6.851495">
        <ele>2113.3</ele>
        <time>2015-07-07T07:29:22Z</time>
      </trkpt>
      <trkpt lat="44.655752" lon="6.851618">
        <ele>2113.3</ele>
        <time>2015-07-07T07:29:53Z</time>
      </trkpt>
      <trkpt lat="44.655677" lon="6.851682">
        <ele>2113.4</ele>
        <time>2015-07-07T07:30:02Z</time>
      </trkpt>
      <trkpt lat="44.655623" lon="6.851772">
        <ele>2114.4</ele>
        <time>2015-07-07T07:30:14Z</time>
      </trkpt>
      <trkpt lat="44.655552" lon="6.851842">
        <ele>2114.8</ele>
        <time>2015-07-07T07:30:22Z</time>
      </trkpt>
      <trkpt lat="44.655545" lon="6.851853">
        <ele>2115.0</ele>
        <time>2015-07-07T07:30:23Z</time>
      </trkpt>
      <trkpt lat="44.655472" lon="6.852048">
        <ele>2118.0</ele>
        <time>2015-07-07T07:30:40Z</time>
      </trkpt>
      <trkpt lat="44.655410" lon="6.852137">
        <ele>2119.2</ele>
        <time>2015-07-07T07:30:47Z</time>
      </trkpt>
      <trkpt lat="44.655388" lon="6.852255">
        <ele>2121.4</ele>
        <time>2015-07-07T07:30:56Z</time>
      </trkpt>
      <trkpt lat="44.655347" lon="6.852365">
        <ele>2123.2</ele>
        <time>2015-07-07T07:31:05Z</time>
      </trkpt>
      <trkpt lat="44.655302" lon="6.852468">
        <ele>2125.0</ele>
        <time>2015-07-07T07:31:14Z</time>
      </trkpt>
      <trkpt lat="44.655245" lon="6.852562">
        <ele>2126.7</ele>
        <time>2015-07-07T07:31:23Z</time>
      </trkpt>
      <trkpt lat="44.655240" lon="6.852572">
        <ele>2127.0</ele>
        <time>2015-07-07T07:31:24Z</time>
      </trkpt>
      <trkpt lat="44.655130" lon="6.852738">
        <ele>2130.5</ele>
        <time>2015-07-07T07:31:41Z</time>
      </trkpt>
      <trkpt lat="44.655095" lon="6.852840">
        <ele>2132.9</ele>
        <time>2015-07-07T07:31:50Z</time>
      </trkpt>
      <trkpt lat="44.655068" lon="6.852943">
        <ele>2135.4</ele>
        <time>2015-07-07T07:32:15Z</time>
      </trkpt>
      <trkpt lat="44.655010" lon="6.853037">
        <ele>2137.5</ele>
        <time>2015-07-07T07:32:22Z</time>
      </trkpt>
      <trkpt lat="44.654947" lon="6.853125">
        <ele>2138.6</ele>
        <time>2015-07-07T07:32:30Z</time>
      </trkpt>
      <trkpt lat="44.654938" lon="6.853135">
        <ele>2138.4</ele>
        <time>2015-07-07T07:32:31Z</time>
      </trkpt>
      <trkpt lat="44.654822" lon="6.853288">
        <ele>2139.9</ele>
        <time>2015-07-07T07:32:46Z</time>
      </trkpt>
      <trkpt lat="44.654758" lon="6.853367">
        <ele>2140.6</ele>
        <time>2015-07-07T07:32:54Z</time>
      </trkpt>
      <trkpt lat="44.654677" lon="6.853403">
        <ele>2140.0</ele>
        <time>2015-07-07T07:33:03Z</time>
      </trkpt>
      <trkpt lat="44.654592" lon="6.853413">
        <ele>2138.6</ele>
        <time>2015-07-07T07:33:11Z</time>
      </trkpt>
      <trkpt lat="44.654507" lon="6.853438">
        <ele>2137.6</ele>
        <time>2015-07-07T07:33:20Z</time>
      </trkpt>
      <trkpt lat="44.654443" lon="6.853515">
        <ele>2138.7</ele>
        <time>2015-07-07T07:33:28Z</time>
      </trkpt>
      <trkpt lat="44.654390" lon="6.853610">
        <ele>2140.6</ele>
        <time>2015-07-07T07:33:36Z</time>
      </trkpt>
      <trkpt lat="44.654385" lon="6.853622">
        <ele>2140.9</ele>
        <time>2015-07-07T07:33:37Z</time>
      </trkpt>
      <trkpt lat="44.654305" lon="6.853817">
        <ele>2145.7</ele>
        <time>2015-07-07T07:33:52Z</time>
      </trkpt>
      <trkpt lat="44.654263" lon="6.853915">
        <ele>2148.0</ele>
        <time>2015-07-07T07:34:00Z</time>
      </trkpt>
      <trkpt lat="44.654203" lon="6.854005">
        <ele>2149.9</ele>
        <time>2015-07-07T07:34:09Z</time>
      </trkpt>
      <trkpt lat="44.654128" lon="6.854062">
        <ele>2150.7</ele>
        <time>2015-07-07T07:34:17Z</time>
      </trkpt>
      <trkpt lat="44.654050" lon="6.854107">
        <ele>2150.3</ele>
        <time>2015-07-07T07:34:26Z</time>
      </trkpt>
      <trkpt lat="44.653980" lon="6.854172">
        <ele>2151.0</ele>
        <time>2015-07-07T07:34:34Z</time>
      </trkpt>
      <trkpt lat="44.653903" lon="6.854215">
        <ele>2151.1</ele>
        <time>2015-07-07T07:34:41Z</time>
      </trkpt>
      <trkpt lat="44.653892" lon="6.854220">
        <ele>2151.4</ele>
        <time>2015-07-07T07:34:42Z</time>
      </trkpt>
      <trkpt lat="44.653762" lon="6.854362">
        <ele>2155.0</ele>
        <time>2015-07-07T07:34:56Z</time>
      </trkpt>
      <trkpt lat="44.653692" lon="6.854432">
        <ele>2156.2</ele>
        <time>2015-07-07T07:35:05Z</time>
      </trkpt>
      <trkpt lat="44.653632" lon="6.854513">
        <ele>2158.3</ele>
        <time>2015-07-07T07:35:14Z</time>
      </trkpt>
      <trkpt lat="44.653575" lon="6.854597">
        <ele>2160.9</ele>
        <time>2015-07-07T07:35:23Z</time>
      </trkpt>
      <trkpt lat="44.653515" lon="6.854678">
        <ele>2162.8</ele>
        <time>2015-07-07T07:35:31Z</time>
      </trkpt>
      <trkpt lat="44.653453" lon="6.854752">
        <ele>2164.6</ele>
        <time>2015-07-07T07:35:40Z</time>
      </trkpt>
      <trkpt lat="44.653390" lon="6.854835">
        <ele>2166.4</ele>
        <time>2015-07-07T07:35:49Z</time>
      </trkpt>
      <trkpt lat="44.653383" lon="6.854843">
        <ele>2166.8</ele>
        <time>2015-07-07T07:35:50Z</time>
      </trkpt>
      <trkpt lat="44.653258" lon="6.854975">
        <ele>2168.2</ele>
        <time>2015-07-07T07:36:05Z</time>
      </trkpt>
      <trkpt lat="44.653197" lon="6.855065">
        <ele>2169.7</ele>
        <time>2015-07-07T07:36:14Z</time>
      </trkpt>
      <trkpt lat="44.653123" lon="6.855137">
        <ele>2169.9</ele>
        <time>2015-07-07T07:36:23Z</time>
      </trkpt>
      <trkpt lat="44.653047" lon="6.855200">
        <ele>2169.7</ele>
        <time>2015-07-07T07:36:32Z</time>
      </trkpt>
      <trkpt lat="44.652995" lon="6.855302">
        <ele>2172.2</ele>
        <time>2015-07-07T07:37:04Z</time>
      </trkpt>
      <trkpt lat="44.652988" lon="6.855312">
        <ele>2172.5</ele>
        <time>2015-07-07T07:37:05Z</time>
      </trkpt>
      <trkpt lat="44.652878" lon="6.855465">
        <ele>2174.5</ele>
        <time>2015-07-07T07:37:20Z</time>
      </trkpt>
      <trkpt lat="44.652810" lon="6.855535">
        <ele>2175.3</ele>
        <time>2015-07-07T07:37:28Z</time>
      </trkpt>
      <trkpt lat="44.652747" lon="6.855615">
        <ele>2176.4</ele>
        <time>2015-07-07T07:37:37Z</time>
      </trkpt>
      <trkpt lat="44.652687" lon="6.855693">
        <ele>2177.6</ele>
        <time>2015-07-07T07:37:45Z</time>
      </trkpt>
      <trkpt lat="44.652673" lon="6.855810">
        <ele>2181.9</ele>
        <time>2015-07-07T07:37:58Z</time>
      </trkpt>
      <trkpt lat="44.652642" lon="6.855917">
        <ele>2185.1</ele>
        <time>2015-07-07T07:38:50Z</time>
      </trkpt>
      <trkpt lat="44.652638" lon="6.855930">
        <ele>2185.5</ele>
        <time>2015-07-07T07:38:51Z</time>
      </trkpt>
      <trkpt lat="44.652535" lon="6.856020">
        <ele>2185.7</ele>
        <time>2015-07-07T07:39:04Z</time>
      </trkpt>
      <trkpt lat="44.652455" lon="6.855990">
        <ele>2181.5</ele>
        <time>2015-07-07T07:39:24Z</time>
      </trkpt>
      <trkpt lat="44.652385" lon="6.856037">
        <ele>2180.4</ele>
        <time>2015-07-07T07:39:30Z</time>
      </trkpt>
      <trkpt lat="44.652318" lon="6.856122">
        <ele>2181.4</ele>
        <time>2015-07-07T07:39:43Z</time>
      </trkpt>
      <trkpt lat="44.652253" lon="6.856168">
        <ele>2180.4</ele>
        <time>2015-07-07T07:39:54Z</time>
      </trkpt>
      <trkpt lat="44.652227" lon="6.856165">
        <ele>2179.4</ele>
        <time>2015-07-07T07:39:55Z</time>
      </trkpt>
      <trkpt lat="44.652095" lon="6.856092">
        <ele>2171.5</ele>
        <time>2015-07-07T07:40:04Z</time>
      </trkpt>
      <trkpt lat="44.652010" lon="6.856113">
        <ele>2168.6</ele>
        <time>2015-07-07T07:40:11Z</time>
      </trkpt>
      <trkpt lat="44.651932" lon="6.856158">
        <ele>2167.7</ele>
        <time>2015-07-07T07:40:31Z</time>
      </trkpt>
      <trkpt lat="44.651888" lon="6.856267">
        <ele>2170.3</ele>
        <time>2015-07-07T07:40:39Z</time>
      </trkpt>
      <trkpt lat="44.651823" lon="6.856352">
        <ele>2171.1</ele>
        <time>2015-07-07T07:40:54Z</time>
      </trkpt>
      <trkpt lat="44.651752" lon="6.856408">
        <ele>2171.1</ele>
        <time>2015-07-07T07:41:02Z</time>
      </trkpt>
      <trkpt lat="44.651745" lon="6.856418">
        <ele>2171.4</ele>
        <time>2015-07-07T07:41:03Z</time>
      </trkpt>
      <trkpt lat="44.651628" lon="6.856575">
        <ele>2173.8</ele>
        <time>2015-07-07T07:41:28Z</time>
      </trkpt>
      <trkpt lat="44.651550" lon="6.856637">
        <ele>2173.5</ele>
        <time>2015-07-07T07:41:43Z</time>
      </trkpt>
      <trkpt lat="44.651465" lon="6.856658">
        <ele>2171.9</ele>
        <time>2015-07-07T07:41:55Z</time>
      </trkpt>
      <trkpt lat="44.651382" lon="6.856702">
        <ele>2170.9</ele>
        <time>2015-07-07T07:42:11Z</time>
      </trkpt>
      <trkpt lat="44.651375" lon="6.856703">
        <ele>2170.7</ele>
        <time>2015-07-07T07:42:12Z</time>
      </trkpt>
      <trkpt lat="44.651247" lon="6.856840">
        <ele>2172.1</ele>
        <time>2015-07-07T07:42:31Z</time>
      </trkpt>
      <trkpt lat="44.651203" lon="6.856935">
        <ele>2174.3</ele>
        <time>2015-07-07T07:42:39Z</time>
      </trkpt>
      <trkpt lat="44.651177" lon="6.857045">
        <ele>2178.0</ele>
        <time>2015-07-07T07:42:47Z</time>
      </trkpt>
      <trkpt lat="44.651140" lon="6.857158">
        <ele>2180.7</ele>
        <time>2015-07-07T07:42:56Z</time>
      </trkpt>
      <trkpt lat="44.651112" lon="6.857275">
        <ele>2184.3</ele>
        <time>2015-07-07T07:43:05Z</time>
      </trkpt>
      <trkpt lat="44.651097" lon="6.857387">
        <ele>2188.3</ele>
        <time>2015-07-07T07:43:13Z</time>
      </trkpt>
      <trkpt lat="44.651095" lon="6.857400">
        <ele>2188.8</ele>
        <time>2015-07-07T07:43:14Z</time>
      </trkpt>
      <trkpt lat="44.651013" lon="6.857598">
        <ele>2192.5</ele>
        <time>2015-07-07T07:43:40Z</time>
      </trkpt>
      <trkpt lat="44.650960" lon="6.857697">
        <ele>2193.7</ele>
        <time>2015-07-07T07:43:51Z</time>
      </trkpt>
      <trkpt lat="44.650922" lon="6.857810">
        <ele>2195.3</ele>
        <time>2015-07-07T07:44:04Z</time>
      </trkpt>
      <trkpt lat="44.650845" lon="6.857862">
        <ele>2193.7</ele>
        <time>2015-07-07T07:44:14Z</time>
      </trkpt>
      <trkpt lat="44.650832" lon="6.857848">
        <ele>2192.8</ele>
        <time>2015-07-07T07:44:15Z</time>
      </trkpt>
      <trkpt lat="44.650683" lon="6.857787">
        <ele>2186.3</ele>
        <time>2015-07-07T07:44:30Z</time>
      </trkpt>
      <trkpt lat="44.650627" lon="6.857705">
        <ele>2181.6</ele>
        <time>2015-07-07T07:44:36Z</time>
      </trkpt>
      <trkpt lat="44.650555" lon="6.857660">
        <ele>2177.8</ele>
        <time>2015-07-07T07:44:45Z</time>
      </trkpt>
      <trkpt lat="44.650472" lon="6.857623">
        <ele>2173.5</ele>
        <time>2015-07-07T07:44:52Z</time>
      </trkpt>
      <trkpt lat="44.650390" lon="6.857635">
        <ele>2171.1</ele>
        <time>2015-07-07T07:45:01Z</time>
      </trkpt>
      <trkpt lat="44.650312" lon="6.857693">
        <ele>2170.2</ele>
        <time>2015-07-07T07:45:10Z</time>
      </trkpt>
      <trkpt lat="44.650262" lon="6.857787">
        <ele>2172.4</ele>
        <time>2015-07-07T07:45:19Z</time>
      </trkpt>
      <trkpt lat="44.650253" lon="6.857793">
        <ele>2172.1</ele>
        <time>2015-07-07T07:45:20Z</time>
      </trkpt>
      <trkpt lat="44.650182" lon="6.857997">
        <ele>2177.7</ele>
        <time>2015-07-07T07:45:38Z</time>
      </trkpt>
      <trkpt lat="44.650153" lon="6.858107">
        <ele>2180.8</ele>
        <time>2015-07-07T07:45:47Z</time>
      </trkpt>
      <trkpt lat="44.650123" lon="6.858215">
        <ele>2184.5</ele>
        <time>2015-07-07T07:45:56Z</time>
      </trkpt>
      <trkpt lat="44.650123" lon="6.858337">
        <ele>2189.1</ele>
        <time>2015-07-07T07:46:04Z</time>
      </trkpt>
      <trkpt lat="44.650110" lon="6.858452">
        <ele>2193.8</ele>
        <time>2015-07-07T07:46:17Z</time>
      </trkpt>
      <trkpt lat="44.650090" lon="6.858570">
        <ele>2198.3</ele>
        <time>2015-07-07T07:46:27Z</time>
      </trkpt>
      <trkpt lat="44.650088" lon="6.858580">
        <ele>2198.8</ele>
        <time>2015-07-07T07:46:28Z</time>
      </trkpt>
      <trkpt lat="44.650040" lon="6.858800">
        <ele>2206.3</ele>
        <time>2015-07-07T07:46:47Z</time>
      </trkpt>
      <trkpt lat="44.649993" lon="6.858900">
        <ele>2209.2</ele>
        <time>2015-07-07T07:46:59Z</time>
      </trkpt>
      <trkpt lat="44.649942" lon="6.859002">
        <ele>2211.4</ele>
        <time>2015-07-07T07:47:11Z</time>
      </trkpt>
      <trkpt lat="44.649888" lon="6.859098">
        <ele>2213.0</ele>
        <time>2015-07-07T07:47:21Z</time>
      </trkpt>
      <trkpt lat="44.649840" lon="6.859200">
        <ele>2215.2</ele>
        <time>2015-07-07T07:47:32Z</time>
      </trkpt>
      <trkpt lat="44.649835" lon="6.859210">
        <ele>2215.5</ele>
        <time>2015-07-07T07:47:33Z</time>
      </trkpt>
      <trkpt lat="44.649747" lon="6.859405">
        <ele>2219.3</ele>
        <time>2015-07-07T07:48:07Z</time>
      </trkpt>
      <trkpt lat="44.649668" lon="6.859463">
        <ele>2217.6</ele>
        <time>2015-07-07T07:48:17Z</time>
      </trkpt>
      <trkpt lat="44.649593" lon="6.859523">
        <ele>2216.5</ele>
        <time>2015-07-07T07:48:38Z</time>
      </trkpt>
      <trkpt lat="44.649585" lon="6.859535">
        <ele>2216.7</ele>
        <time>2015-07-07T07:48:39Z</time>
      </trkpt>
      <trkpt lat="44.649510" lon="6.859730">
        <ele>2220.3</ele>
        <time>2015-07-07T07:48:56Z</time>
      </trkpt>
      <trkpt lat="44.649460" lon="6.859823">
        <ele>2220.9</ele>
        <time>2015-07-07T07:49:07Z</time>
      </trkpt>
      <trkpt lat="44.649417" lon="6.859920">
        <ele>2222.5</ele>
        <time>2015-07-07T07:49:15Z</time>
      </trkpt>
      <trkpt lat="44.649367" lon="6.860012">
        <ele>2223.2</ele>
        <time>2015-07-07T07:49:24Z</time>
      </trkpt>
      <trkpt lat="44.649332" lon="6.860123">
        <ele>2225.4</ele>
        <time>2015-07-07T07:49:33Z</time>
      </trkpt>
      <trkpt lat="44.649285" lon="6.860218">
        <ele>2226.7</ele>
        <time>2015-07-07T07:49:43Z</time>
      </trkpt>
      <trkpt lat="44.649275" lon="6.860225">
        <ele>2226.7</ele>
        <time>2015-07-07T07:49:44Z</time>
      </trkpt>
      <trkpt lat="44.649158" lon="6.860383">
        <ele>2227.1</ele>
        <time>2015-07-07T07:50:09Z</time>
      </trkpt>
      <trkpt lat="44.649118" lon="6.860485">
        <ele>2229.6</ele>
        <time>2015-07-07T07:50:19Z</time>
      </trkpt>
      <trkpt lat="44.649055" lon="6.860562">
        <ele>2230.2</ele>
        <time>2015-07-07T07:50:31Z</time>
      </trkpt>
      <trkpt lat="44.649007" lon="6.860657">
        <ele>2231.9</ele>
        <time>2015-07-07T07:50:46Z</time>
      </trkpt>
      <trkpt lat="44.648998" lon="6.860663">
        <ele>2232.0</ele>
        <time>2015-07-07T07:50:47Z</time>
      </trkpt>
      <trkpt lat="44.648873" lon="6.860792">
        <ele>2231.6</ele>
        <time>2015-07-07T07:51:06Z</time>
      </trkpt>
      <trkpt lat="44.648827" lon="6.860893">
        <ele>2233.9</ele>
        <time>2015-07-07T07:51:17Z</time>
      </trkpt>
      <trkpt lat="44.648763" lon="6.860978">
        <ele>2234.8</ele>
        <time>2015-07-07T07:51:30Z</time>
      </trkpt>
      <trkpt lat="44.648723" lon="6.861080">
        <ele>2237.4</ele>
        <time>2015-07-07T07:51:38Z</time>
      </trkpt>
      <trkpt lat="44.648673" lon="6.861180">
        <ele>2239.0</ele>
        <time>2015-07-07T07:51:48Z</time>
      </trkpt>
      <trkpt lat="44.648668" lon="6.861192">
        <ele>2239.3</ele>
        <time>2015-07-07T07:51:49Z</time>
      </trkpt>
      <trkpt lat="44.648543" lon="6.861320">
        <ele>2239.4</ele>
        <time>2015-07-07T07:52:08Z</time>
      </trkpt>
      <trkpt lat="44.648458" lon="6.861358">
        <ele>2237.5</ele>
        <time>2015-07-07T07:52:19Z</time>
      </trkpt>
      <trkpt lat="44.648383" lon="6.861410">
        <ele>2236.4</ele>
        <time>2015-07-07T07:52:30Z</time>
      </trkpt>
      <trkpt lat="44.648322" lon="6.861490">
        <ele>2237.2</ele>
        <time>2015-07-07T07:52:40Z</time>
      </trkpt>
      <trkpt lat="44.648257" lon="6.861560">
        <ele>2237.4</ele>
        <time>2015-07-07T07:52:50Z</time>
      </trkpt>
      <trkpt lat="44.648250" lon="6.861568">
        <ele>2237.7</ele>
        <time>2015-07-07T07:52:51Z</time>
      </trkpt>
      <trkpt lat="44.648128" lon="6.861718">
        <ele>2239.3</ele>
        <time>2015-07-07T07:53:10Z</time>
      </trkpt>
      <trkpt lat="44.648080" lon="6.861817">
        <ele>2240.8</ele>
        <time>2015-07-07T07:53:20Z</time>
      </trkpt>
      <trkpt lat="44.648023" lon="6.861902">
        <ele>2242.1</ele>
        <time>2015-07-07T07:53:30Z</time>
      </trkpt>
      <trkpt lat="44.647952" lon="6.861967">
        <ele>2241.8</ele>
        <time>2015-07-07T07:53:40Z</time>
      </trkpt>
      <trkpt lat="44.647888" lon="6.862045">
        <ele>2242.2</ele>
        <time>2015-07-07T07:53:50Z</time>
      </trkpt>
      <trkpt lat="44.647838" lon="6.862147">
        <ele>2244.2</ele>
        <time>2015-07-07T07:54:00Z</time>
      </trkpt>
      <trkpt lat="44.647835" lon="6.862160">
        <ele>2244.5</ele>
        <time>2015-07-07T07:54:01Z</time>
      </trkpt>
      <trkpt lat="44.647752" lon="6.862355">
        <ele>2248.5</ele>
        <time>2015-07-07T07:54:18Z</time>
      </trkpt>
      <trkpt lat="44.647702" lon="6.862448">
        <ele>2249.9</ele>
        <time>2015-07-07T07:54:32Z</time>
      </trkpt>
      <trkpt lat="44.647667" lon="6.862563">
        <ele>2252.1</ele>
        <time>2015-07-07T07:54:42Z</time>
      </trkpt>
      <trkpt lat="44.647640" lon="6.862680">
        <ele>2254.5</ele>
        <time>2015-07-07T07:54:51Z</time>
      </trkpt>
      <trkpt lat="44.647595" lon="6.862788">
        <ele>2256.2</ele>
        <time>2015-07-07T07:55:02Z</time>
      </trkpt>
      <trkpt lat="44.647593" lon="6.862800">
        <ele>2256.6</ele>
        <time>2015-07-07T07:55:03Z</time>
      </trkpt>
      <trkpt lat="44.647527" lon="6.863007">
        <ele>2259.9</ele>
        <time>2015-07-07T07:55:24Z</time>
      </trkpt>
      <trkpt lat="44.647485" lon="6.863105">
        <ele>2260.7</ele>
        <time>2015-07-07T07:55:33Z</time>
      </trkpt>
      <trkpt lat="44.647437" lon="6.863195">
        <ele>2261.1</ele>
        <time>2015-07-07T07:55:42Z</time>
      </trkpt>
      <trkpt lat="44.647395" lon="6.863295">
        <ele>2262.2</ele>
        <time>2015-07-07T07:55:52Z</time>
      </trkpt>
      <trkpt lat="44.647367" lon="6.863412">
        <ele>2264.5</ele>
        <time>2015-07-07T07:56:02Z</time>
      </trkpt>
      <trkpt lat="44.647345" lon="6.863533">
        <ele>2267.3</ele>
        <time>2015-07-07T07:56:12Z</time>
      </trkpt>
      <trkpt lat="44.647345" lon="6.863543">
        <ele>2267.7</ele>
        <time>2015-07-07T07:56:13Z</time>
      </trkpt>
      <trkpt lat="44.647278" lon="6.863750">
        <ele>2270.6</ele>
        <time>2015-07-07T07:56:32Z</time>
      </trkpt>
      <trkpt lat="44.647252" lon="6.863868">
        <ele>2272.7</ele>
        <time>2015-07-07T07:56:54Z</time>
      </trkpt>
      <trkpt lat="44.647215" lon="6.863975">
        <ele>2273.7</ele>
        <time>2015-07-07T07:57:03Z</time>
      </trkpt>
      <trkpt lat="44.647208" lon="6.864095">
        <ele>2276.7</ele>
        <time>2015-07-07T07:57:13Z</time>
      </trkpt>
      <trkpt lat="44.647207" lon="6.864107">
        <ele>2276.9</ele>
        <time>2015-07-07T07:57:14Z</time>
      </trkpt>
      <trkpt lat="44.647120" lon="6.864297">
        <ele>2277.6</ele>
        <time>2015-07-07T07:57:31Z</time>
      </trkpt>
      <trkpt lat="44.647067" lon="6.864383">
        <ele>2276.5</ele>
        <time>2015-07-07T07:57:40Z</time>
      </trkpt>
      <trkpt lat="44.647022" lon="6.864488">
        <ele>2276.6</ele>
        <time>2015-07-07T07:57:49Z</time>
      </trkpt>
      <trkpt lat="44.646972" lon="6.864588">
        <ele>2276.5</ele>
        <time>2015-07-07T07:57:59Z</time>
      </trkpt>
      <trkpt lat="44.646927" lon="6.864683">
        <ele>2276.0</ele>
        <time>2015-07-07T07:58:08Z</time>
      </trkpt>
      <trkpt lat="44.646887" lon="6.864795">
        <ele>2276.6</ele>
        <time>2015-07-07T07:58:18Z</time>
      </trkpt>
      <trkpt lat="44.646882" lon="6.864805">
        <ele>2276.5</ele>
        <time>2015-07-07T07:58:19Z</time>
      </trkpt>
      <trkpt lat="44.646795" lon="6.865007">
        <ele>2275.9</ele>
        <time>2015-07-07T07:58:38Z</time>
      </trkpt>
      <trkpt lat="44.646723" lon="6.865080">
        <ele>2273.8</ele>
        <time>2015-07-07T07:58:50Z</time>
      </trkpt>
      <trkpt lat="44.646638" lon="6.865110">
        <ele>2269.6</ele>
        <time>2015-07-07T07:59:03Z</time>
      </trkpt>
      <trkpt lat="44.646557" lon="6.865148">
        <ele>2267.7</ele>
        <time>2015-07-07T07:59:13Z</time>
      </trkpt>
      <trkpt lat="44.646477" lon="6.865202">
        <ele>2266.2</ele>
        <time>2015-07-07T07:59:23Z</time>
      </trkpt>
      <trkpt lat="44.646473" lon="6.865210">
        <ele>2266.5</ele>
        <time>2015-07-07T07:59:24Z</time>
      </trkpt>
      <trkpt lat="44.646357" lon="6.865385">
        <ele>2267.2</ele>
        <time>2015-07-07T07:59:44Z</time>
      </trkpt>
      <trkpt lat="44.646312" lon="6.865483">
        <ele>2268.6</ele>
        <time>2015-07-07T07:59:53Z</time>
      </trkpt>
      <trkpt lat="44.646272" lon="6.865593">
        <ele>2270.2</ele>
        <time>2015-07-07T08:00:03Z</time>
      </trkpt>
      <trkpt lat="44.646232" lon="6.865698">
        <ele>2271.7</ele>
        <time>2015-07-07T08:00:13Z</time>
      </trkpt>
      <trkpt lat="44.646183" lon="6.865782">
        <ele>2272.3</ele>
        <time>2015-07-07T08:00:54Z</time>
      </trkpt>
      <trkpt lat="44.646155" lon="6.865797">
        <ele>2271.3</ele>
        <time>2015-07-07T08:00:55Z</time>
      </trkpt>
      <trkpt lat="44.646060" lon="6.865927">
        <ele>2270.1</ele>
        <time>2015-07-07T08:01:08Z</time>
      </trkpt>
      <trkpt lat="44.646007" lon="6.866015">
        <ele>2269.7</ele>
        <time>2015-07-07T08:01:18Z</time>
      </trkpt>
      <trkpt lat="44.645970" lon="6.866120">
        <ele>2270.0</ele>
        <time>2015-07-07T08:01:27Z</time>
      </trkpt>
      <trkpt lat="44.645955" lon="6.866243">
        <ele>2272.0</ele>
        <time>2015-07-07T08:01:37Z</time>
      </trkpt>
      <trkpt lat="44.645947" lon="6.866368">
        <ele>2274.3</ele>
        <time>2015-07-07T08:01:50Z</time>
      </trkpt>
      <trkpt lat="44.645935" lon="6.866483">
        <ele>2276.4</ele>
        <time>2015-07-07T08:01:58Z</time>
      </trkpt>
      <trkpt lat="44.645935" lon="6.866495">
        <ele>2276.4</ele>
        <time>2015-07-07T08:01:59Z</time>
      </trkpt>
      <trkpt lat="44.645932" lon="6.866618">
        <ele>2279.0</ele>
        <time>2015-07-07T08:04:25Z</time>
      </trkpt>
      <trkpt lat="44.645940" lon="6.866845">
        <ele>2284.7</ele>
        <time>2015-07-07T08:04:43Z</time>
      </trkpt>
      <trkpt lat="44.645922" lon="6.866960">
        <ele>2286.6</ele>
        <time>2015-07-07T08:04:53Z</time>
      </trkpt>
      <trkpt lat="44.645895" lon="6.867075">
        <ele>2287.7</ele>
        <time>2015-07-07T08:05:01Z</time>
      </trkpt>
      <trkpt lat="44.645887" lon="6.867193">
        <ele>2290.3</ele>
        <time>2015-07-07T08:05:14Z</time>
      </trkpt>
      <trkpt lat="44.645880" lon="6.867312">
        <ele>2292.8</ele>
        <time>2015-07-07T08:05:23Z</time>
      </trkpt>
      <trkpt lat="44.645860" lon="6.867425">
        <ele>2294.5</ele>
        <time>2015-07-07T08:05:32Z</time>
      </trkpt>
      <trkpt lat="44.645857" lon="6.867435">
        <ele>2294.8</ele>
        <time>2015-07-07T08:05:33Z</time>
      </trkpt>
      <trkpt lat="44.645765" lon="6.867628">
        <ele>2294.3</ele>
        <time>2015-07-07T08:05:52Z</time>
      </trkpt>
      <trkpt lat="44.645735" lon="6.867738">
        <ele>2295.3</ele>
        <time>2015-07-07T08:06:02Z</time>
      </trkpt>
      <trkpt lat="44.645693" lon="6.867847">
        <ele>2295.6</ele>
        <time>2015-07-07T08:06:12Z</time>
      </trkpt>
      <trkpt lat="44.645653" lon="6.867957">
        <ele>2296.3</ele>
        <time>2015-07-07T08:06:22Z</time>
      </trkpt>
      <trkpt lat="44.645603" lon="6.868052">
        <ele>2295.9</ele>
        <time>2015-07-07T08:06:31Z</time>
      </trkpt>
      <trkpt lat="44.645560" lon="6.868162">
        <ele>2296.5</ele>
        <time>2015-07-07T08:06:41Z</time>
      </trkpt>
      <trkpt lat="44.645555" lon="6.868170">
        <ele>2296.3</ele>
        <time>2015-07-07T08:06:42Z</time>
      </trkpt>
      <trkpt lat="44.645423" lon="6.868293">
        <ele>2293.5</ele>
        <time>2015-07-07T08:07:23Z</time>
      </trkpt>
      <trkpt lat="44.645387" lon="6.868393">
        <ele>2293.4</ele>
        <time>2015-07-07T08:07:30Z</time>
      </trkpt>
      <trkpt lat="44.645363" lon="6.868502">
        <ele>2293.9</ele>
        <time>2015-07-07T08:07:37Z</time>
      </trkpt>
      <trkpt lat="44.645402" lon="6.868613">
        <ele>2296.7</ele>
        <time>2015-07-07T08:07:45Z</time>
      </trkpt>
      <trkpt lat="44.645407" lon="6.868625">
        <ele>2297.0</ele>
        <time>2015-07-07T08:07:46Z</time>
      </trkpt>
      <trkpt lat="44.645420" lon="6.868853">
        <ele>2300.4</ele>
        <time>2015-07-07T08:08:04Z</time>
      </trkpt>
      <trkpt lat="44.645425" lon="6.868978">
        <ele>2302.1</ele>
        <time>2015-07-07T08:08:14Z</time>
      </trkpt>
      <trkpt lat="44.645440" lon="6.869098">
        <ele>2304.1</ele>
        <time>2015-07-07T08:08:24Z</time>
      </trkpt>
      <trkpt lat="44.645457" lon="6.869210">
        <ele>2306.2</ele>
        <time>2015-07-07T08:08:33Z</time>
      </trkpt>
      <trkpt lat="44.645457" lon="6.869327">
        <ele>2307.2</ele>
        <time>2015-07-07T08:08:42Z</time>
      </trkpt>
      <trkpt lat="44.645472" lon="6.869450">
        <ele>2308.8</ele>
        <time>2015-07-07T08:08:53Z</time>
      </trkpt>
      <trkpt lat="44.645475" lon="6.869457">
        <ele>2309.0</ele>
        <time>2015-07-07T08:08:54Z</time>
      </trkpt>
      <trkpt lat="44.645537" lon="6.869667">
        <ele>2313.8</ele>
        <time>2015-07-07T08:09:44Z</time>
      </trkpt>
      <trkpt lat="44.645573" lon="6.869773">
        <ele>2316.5</ele>
        <time>2015-07-07T08:10:03Z</time>
      </trkpt>
      <trkpt lat="44.645580" lon="6.869790">
        <ele>2317.0</ele>
        <time>2015-07-07T08:10:04Z</time>
      </trkpt>
      <trkpt lat="44.645602" lon="6.870003">
        <ele>2320.1</ele>
        <time>2015-07-07T08:10:20Z</time>
      </trkpt>
      <trkpt lat="44.645582" lon="6.870113">
        <ele>2320.2</ele>
        <time>2015-07-07T08:10:29Z</time>
      </trkpt>
      <trkpt lat="44.645587" lon="6.870238">
        <ele>2321.9</ele>
        <time>2015-07-07T08:10:39Z</time>
      </trkpt>
      <trkpt lat="44.645618" lon="6.870348">
        <ele>2324.5</ele>
        <time>2015-07-07T08:10:48Z</time>
      </trkpt>
      <trkpt lat="44.645640" lon="6.870455">
        <ele>2326.9</ele>
        <time>2015-07-07T08:10:55Z</time>
      </trkpt>
      <trkpt lat="44.645662" lon="6.870563">
        <ele>2329.2</ele>
        <time>2015-07-07T08:11:01Z</time>
      </trkpt>
      <trkpt lat="44.645692" lon="6.870678">
        <ele>2332.0</ele>
        <time>2015-07-07T08:11:11Z</time>
      </trkpt>
      <trkpt lat="44.645693" lon="6.870688">
        <ele>2332.0</ele>
        <time>2015-07-07T08:11:12Z</time>
      </trkpt>
      <trkpt lat="44.645685" lon="6.870912">
        <ele>2333.4</ele>
        <time>2015-07-07T08:11:27Z</time>
      </trkpt>
      <trkpt lat="44.645673" lon="6.871037">
        <ele>2333.0</ele>
        <time>2015-07-07T08:11:34Z</time>
      </trkpt>
      <trkpt lat="44.645657" lon="6.871152">
        <ele>2332.4</ele>
        <time>2015-07-07T08:11:46Z</time>
      </trkpt>
      <trkpt lat="44.645637" lon="6.871268">
        <ele>2331.7</ele>
        <time>2015-07-07T08:11:55Z</time>
      </trkpt>
      <trkpt lat="44.645615" lon="6.871385">
        <ele>2330.8</ele>
        <time>2015-07-07T08:12:04Z</time>
      </trkpt>
      <trkpt lat="44.645617" lon="6.871503">
        <ele>2331.3</ele>
        <time>2015-07-07T08:12:16Z</time>
      </trkpt>
      <trkpt lat="44.645618" lon="6.871512">
        <ele>2331.3</ele>
        <time>2015-07-07T08:12:17Z</time>
      </trkpt>
      <trkpt lat="44.645590" lon="6.871730">
        <ele>2330.4</ele>
        <time>2015-07-07T08:12:36Z</time>
      </trkpt>
      <trkpt lat="44.645593" lon="6.871848">
        <ele>2330.3</ele>
        <time>2015-07-07T08:12:46Z</time>
      </trkpt>
      <trkpt lat="44.645627" lon="6.871965">
        <ele>2331.8</ele>
        <time>2015-07-07T08:12:58Z</time>
      </trkpt>
      <trkpt lat="44.645657" lon="6.872080">
        <ele>2332.9</ele>
        <time>2015-07-07T08:13:10Z</time>
      </trkpt>
      <trkpt lat="44.645675" lon="6.872198">
        <ele>2333.4</ele>
        <time>2015-07-07T08:13:25Z</time>
      </trkpt>
      <trkpt lat="44.645677" lon="6.872207">
        <ele>2333.4</ele>
        <time>2015-07-07T08:13:26Z</time>
      </trkpt>
      <trkpt lat="44.645722" lon="6.872435">
        <ele>2334.5</ele>
        <time>2015-07-07T08:13:51Z</time>
      </trkpt>
      <trkpt lat="44.645747" lon="6.872552">
        <ele>2335.1</ele>
        <time>2015-07-07T08:14:04Z</time>
      </trkpt>
      <trkpt lat="44.645780" lon="6.872655">
        <ele>2336.1</ele>
        <time>2015-07-07T08:14:40Z</time>
      </trkpt>
      <trkpt lat="44.645782" lon="6.872673">
        <ele>2336.1</ele>
        <time>2015-07-07T08:14:41Z</time>
      </trkpt>
      <trkpt lat="44.645873" lon="6.872858">
        <ele>2339.0</ele>
        <time>2015-07-07T08:14:58Z</time>
      </trkpt>
      <trkpt lat="44.645925" lon="6.872960">
        <ele>2340.7</ele>
        <time>2015-07-07T08:15:06Z</time>
      </trkpt>
      <trkpt lat="44.645977" lon="6.873058">
        <ele>2342.4</ele>
        <time>2015-07-07T08:15:17Z</time>
      </trkpt>
      <trkpt lat="44.646030" lon="6.873142">
        <ele>2344.3</ele>
        <time>2015-07-07T08:15:25Z</time>
      </trkpt>
      <trkpt lat="44.646085" lon="6.873235">
        <ele>2346.2</ele>
        <time>2015-07-07T08:15:34Z</time>
      </trkpt>
      <trkpt lat="44.646112" lon="6.873348">
        <ele>2347.3</ele>
        <time>2015-07-07T08:15:45Z</time>
      </trkpt>
      <trkpt lat="44.646115" lon="6.873357">
        <ele>2347.4</ele>
        <time>2015-07-07T08:15:46Z</time>
      </trkpt>
      <trkpt lat="44.646143" lon="6.873580">
        <ele>2351.5</ele>
        <time>2015-07-07T08:17:32Z</time>
      </trkpt>
      <trkpt lat="44.646142" lon="6.873593">
        <ele>2351.7</ele>
        <time>2015-07-07T08:17:33Z</time>
      </trkpt>
      <trkpt lat="44.646077" lon="6.873805">
        <ele>2352.1</ele>
        <time>2015-07-07T08:18:11Z</time>
      </trkpt>
      <trkpt lat="44.646042" lon="6.873918">
        <ele>2352.4</ele>
        <time>2015-07-07T08:18:26Z</time>
      </trkpt>
      <trkpt lat="44.646008" lon="6.874030">
        <ele>2352.6</ele>
        <time>2015-07-07T08:19:20Z</time>
      </trkpt>
      <trkpt lat="44.646008" lon="6.874037">
        <ele>2352.8</ele>
        <time>2015-07-07T08:19:21Z</time>
      </trkpt>
      <trkpt lat="44.645903" lon="6.874120">
        <ele>2350.0</ele>
        <time>2015-07-07T08:20:11Z</time>
      </trkpt>
      <trkpt lat="44.645817" lon="6.874100">
        <ele>2346.7</ele>
        <time>2015-07-07T08:20:17Z</time>
      </trkpt>
      <trkpt lat="44.645743" lon="6.874165">
        <ele>2345.4</ele>
        <time>2015-07-07T08:20:22Z</time>
      </trkpt>
      <trkpt lat="44.645730" lon="6.874177">
        <ele>2345.0</ele>
        <time>2015-07-07T08:20:23Z</time>
      </trkpt>
      <trkpt lat="44.645613" lon="6.874258">
        <ele>2342.8</ele>
        <time>2015-07-07T08:20:42Z</time>
      </trkpt>
      <trkpt lat="44.645600" lon="6.874383">
        <ele>2344.1</ele>
        <time>2015-07-07T08:20:50Z</time>
      </trkpt>
      <trkpt lat="44.645563" lon="6.874492">
        <ele>2344.5</ele>
        <time>2015-07-07T08:20:59Z</time>
      </trkpt>
      <trkpt lat="44.645552" lon="6.874617">
        <ele>2345.8</ele>
        <time>2015-07-07T08:21:17Z</time>
      </trkpt>
      <trkpt lat="44.645535" lon="6.874740">
        <ele>2347.0</ele>
        <time>2015-07-07T08:21:27Z</time>
      </trkpt>
      <trkpt lat="44.645533" lon="6.874750">
        <ele>2346.9</ele>
        <time>2015-07-07T08:21:28Z</time>
      </trkpt>
      <trkpt lat="44.645447" lon="6.874948">
        <ele>2346.6</ele>
        <time>2015-07-07T08:21:51Z</time>
      </trkpt>
      <trkpt lat="44.645385" lon="6.875027">
        <ele>2345.1</ele>
        <time>2015-07-07T08:22:03Z</time>
      </trkpt>
      <trkpt lat="44.645345" lon="6.875132">
        <ele>2344.2</ele>
        <time>2015-07-07T08:22:16Z</time>
      </trkpt>
      <trkpt lat="44.645313" lon="6.875242">
        <ele>2343.7</ele>
        <time>2015-07-07T08:22:30Z</time>
      </trkpt>
      <trkpt lat="44.645300" lon="6.875253">
        <ele>2343.3</ele>
        <time>2015-07-07T08:22:31Z</time>
      </trkpt>
      <trkpt lat="44.645217" lon="6.875450">
        <ele>2341.9</ele>
        <time>2015-07-07T08:22:56Z</time>
      </trkpt>
      <trkpt lat="44.645163" lon="6.875545">
        <ele>2340.9</ele>
        <time>2015-07-07T08:23:12Z</time>
      </trkpt>
      <trkpt lat="44.645110" lon="6.875647">
        <ele>2339.9</ele>
        <time>2015-07-07T08:23:22Z</time>
      </trkpt>
      <trkpt lat="44.645070" lon="6.875758">
        <ele>2339.6</ele>
        <time>2015-07-07T08:23:33Z</time>
      </trkpt>
      <trkpt lat="44.645067" lon="6.875768">
        <ele>2339.6</ele>
        <time>2015-07-07T08:23:34Z</time>
      </trkpt>
      <trkpt lat="44.645003" lon="6.875980">
        <ele>2340.0</ele>
        <time>2015-07-07T08:24:19Z</time>
      </trkpt>
      <trkpt lat="44.644942" lon="6.876058">
        <ele>2341.6</ele>
        <time>2015-07-07T08:24:58Z</time>
      </trkpt>
      <trkpt lat="44.644937" lon="6.876070">
        <ele>2341.8</ele>
        <time>2015-07-07T08:24:59Z</time>
      </trkpt>
      <trkpt lat="44.644863" lon="6.876262">
        <ele>2345.0</ele>
        <time>2015-07-07T08:25:18Z</time>
      </trkpt>
      <trkpt lat="44.644822" lon="6.876358">
        <ele>2346.5</ele>
        <time>2015-07-07T08:25:27Z</time>
      </trkpt>
      <trkpt lat="44.644783" lon="6.876468">
        <ele>2348.1</ele>
        <time>2015-07-07T08:25:37Z</time>
      </trkpt>
      <trkpt lat="44.644760" lon="6.876580">
        <ele>2349.6</ele>
        <time>2015-07-07T08:25:46Z</time>
      </trkpt>
      <trkpt lat="44.644727" lon="6.876688">
        <ele>2351.1</ele>
        <time>2015-07-07T08:25:56Z</time>
      </trkpt>
      <trkpt lat="44.644683" lon="6.876787">
        <ele>2352.4</ele>
        <time>2015-07-07T08:26:05Z</time>
      </trkpt>
      <trkpt lat="44.644678" lon="6.876797">
        <ele>2352.6</ele>
        <time>2015-07-07T08:26:06Z</time>
      </trkpt>
      <trkpt lat="44.644607" lon="6.877005">
        <ele>2355.2</ele>
        <time>2015-07-07T08:26:21Z</time>
      </trkpt>
      <trkpt lat="44.644600" lon="6.877122">
        <ele>2356.5</ele>
        <time>2015-07-07T08:26:32Z</time>
      </trkpt>
      <trkpt lat="44.644584" lon="6.877243">
        <ele>2357.8</ele>
        <time>2015-07-07T08:26:50Z</time>
      </trkpt>
      <trkpt lat="44.644560" lon="6.877362">
        <ele>2359.3</ele>
        <time>2015-07-07T08:27:06Z</time>
      </trkpt>
      <trkpt lat="44.644558" lon="6.877368">
        <ele>2359.4</ele>
        <time>2015-07-07T08:27:07Z</time>
      </trkpt>
      <trkpt lat="44.644477" lon="6.877568">
        <ele>2362.4</ele>
        <time>2015-07-07T08:27:39Z</time>
      </trkpt>
      <trkpt lat="44.644412" lon="6.877647">
        <ele>2364.0</ele>
        <time>2015-07-07T08:27:58Z</time>
      </trkpt>
      <trkpt lat="44.644423" lon="6.877768">
        <ele>2365.3</ele>
        <time>2015-07-07T08:28:16Z</time>
      </trkpt>
      <trkpt lat="44.644428" lon="6.877772">
        <ele>2365.4</ele>
        <time>2015-07-07T08:28:17Z</time>
      </trkpt>
      <trkpt lat="44.644535" lon="6.877950">
        <ele>2365.8</ele>
        <time>2015-07-07T08:28:42Z</time>
      </trkpt>
      <trkpt lat="44.644543" lon="6.878073">
        <ele>2367.0</ele>
        <time>2015-07-07T08:28:54Z</time>
      </trkpt>
      <trkpt lat="44.644573" lon="6.878188">
        <ele>2367.6</ele>
        <time>2015-07-07T08:29:07Z</time>
      </trkpt>
      <trkpt lat="44.644558" lon="6.878305">
        <ele>2369.1</ele>
        <time>2015-07-07T08:29:19Z</time>
      </trkpt>
      <trkpt lat="44.644562" lon="6.878315">
        <ele>2369.1</ele>
        <time>2015-07-07T08:29:20Z</time>
      </trkpt>
      <trkpt lat="44.644617" lon="6.878530">
        <ele>2369.6</ele>
        <time>2015-07-07T08:29:42Z</time>
      </trkpt>
      <trkpt lat="44.644605" lon="6.878648">
        <ele>2370.7</ele>
        <time>2015-07-07T08:29:54Z</time>
      </trkpt>
      <trkpt lat="44.644613" lon="6.878763">
        <ele>2371.3</ele>
        <time>2015-07-07T08:30:05Z</time>
      </trkpt>
      <trkpt lat="44.644665" lon="6.878852">
        <ele>2371.0</ele>
        <time>2015-07-07T08:30:15Z</time>
      </trkpt>
      <trkpt lat="44.644665" lon="6.878973">
        <ele>2371.9</ele>
        <time>2015-07-07T08:30:29Z</time>
      </trkpt>
      <trkpt lat="44.644665" lon="6.878983">
        <ele>2372.0</ele>
        <time>2015-07-07T08:30:30Z</time>
      </trkpt>
      <trkpt lat="44.644653" lon="6.879215">
        <ele>2373.8</ele>
        <time>2015-07-07T08:30:57Z</time>
      </trkpt>
      <trkpt lat="44.644655" lon="6.879333">
        <ele>2375.1</ele>
        <time>2015-07-07T08:31:09Z</time>
      </trkpt>
      <trkpt lat="44.644615" lon="6.879445">
        <ele>2376.9</ele>
        <time>2015-07-07T08:31:22Z</time>
      </trkpt>
      <trkpt lat="44.644612" lon="6.879565">
        <ele>2378.3</ele>
        <time>2015-07-07T08:31:36Z</time>
      </trkpt>
      <trkpt lat="44.644612" lon="6.879572">
        <ele>2378.4</ele>
        <time>2015-07-07T08:31:37Z</time>
      </trkpt>
      <trkpt lat="44.644582" lon="6.879798">
        <ele>2381.2</ele>
        <time>2015-07-07T08:32:04Z</time>
      </trkpt>
      <trkpt lat="44.644593" lon="6.879918">
        <ele>2382.4</ele>
        <time>2015-07-07T08:32:19Z</time>
      </trkpt>
      <trkpt lat="44.644602" lon="6.880037">
        <ele>2383.9</ele>
        <time>2015-07-07T08:32:32Z</time>
      </trkpt>
      <trkpt lat="44.644628" lon="6.880153">
        <ele>2385.5</ele>
        <time>2015-07-07T08:32:49Z</time>
      </trkpt>
      <trkpt lat="44.644635" lon="6.880162">
        <ele>2385.6</ele>
        <time>2015-07-07T08:32:50Z</time>
      </trkpt>
      <trkpt lat="44.644652" lon="6.880378">
        <ele>2389.5</ele>
        <time>2015-07-07T08:33:28Z</time>
      </trkpt>
      <trkpt lat="44.644682" lon="6.880490">
        <ele>2391.0</ele>
        <time>2015-07-07T08:33:43Z</time>
      </trkpt>
      <trkpt lat="44.644740" lon="6.880578">
        <ele>2391.8</ele>
        <time>2015-07-07T08:33:58Z</time>
      </trkpt>
      <trkpt lat="44.644743" lon="6.880585">
        <ele>2392.0</ele>
        <time>2015-07-07T08:33:59Z</time>
      </trkpt>
      <trkpt lat="44.644810" lon="6.880795">
        <ele>2395.0</ele>
        <time>2015-07-07T08:34:25Z</time>
      </trkpt>
      <trkpt lat="44.644860" lon="6.880892">
        <ele>2396.6</ele>
        <time>2015-07-07T08:34:39Z</time>
      </trkpt>
      <trkpt lat="44.644933" lon="6.880943">
        <ele>2397.1</ele>
        <time>2015-07-07T08:34:52Z</time>
      </trkpt>
      <trkpt lat="44.644972" lon="6.881053">
        <ele>2400.0</ele>
        <time>2015-07-07T08:35:06Z</time>
      </trkpt>
      <trkpt lat="44.644972" lon="6.881058">
        <ele>2400.0</ele>
        <time>2015-07-07T08:35:07Z</time>
      </trkpt>
      <trkpt lat="44.645020" lon="6.881283">
        <ele>2406.4</ele>
        <time>2015-07-07T08:35:40Z</time>
      </trkpt>
      <trkpt lat="44.645050" lon="6.881398">
        <ele>2410.0</ele>
        <time>2015-07-07T08:35:56Z</time>
      </trkpt>
      <trkpt lat="44.645090" lon="6.881505">
        <ele>2413.0</ele>
        <time>2015-07-07T08:36:09Z</time>
      </trkpt>
      <trkpt lat="44.645092" lon="6.881515">
        <ele>2413.4</ele>
        <time>2015-07-07T08:36:10Z</time>
      </trkpt>
      <trkpt lat="44.645155" lon="6.881667">
        <ele>2417.4</ele>
        <time>2015-07-07T08:36:35Z</time>
      </trkpt>
      <trkpt lat="44.645222" lon="6.881745">
        <ele>2419.1</ele>
        <time>2015-07-07T08:36:51Z</time>
      </trkpt>
      <trkpt lat="44.645283" lon="6.881828">
        <ele>2420.6</ele>
        <time>2015-07-07T08:37:04Z</time>
      </trkpt>
      <trkpt lat="44.645338" lon="6.881928">
        <ele>2422.6</ele>
        <time>2015-07-07T08:37:19Z</time>
      </trkpt>
      <trkpt lat="44.645340" lon="6.881937">
        <ele>2422.6</ele>
        <time>2015-07-07T08:37:20Z</time>
      </trkpt>
      <trkpt lat="44.645447" lon="6.882110">
        <ele>2425.8</ele>
        <time>2015-07-07T08:37:55Z</time>
      </trkpt>
      <trkpt lat="44.645530" lon="6.882155">
        <ele>2425.9</ele>
        <time>2015-07-07T08:38:10Z</time>
      </trkpt>
      <trkpt lat="44.645618" lon="6.882168">
        <ele>2425.3</ele>
        <time>2015-07-07T08:38:24Z</time>
      </trkpt>
      <trkpt lat="44.645625" lon="6.882168">
        <ele>2425.2</ele>
        <time>2015-07-07T08:38:25Z</time>
      </trkpt>
      <trkpt lat="44.645790" lon="6.882205">
        <ele>2424.4</ele>
        <time>2015-07-07T08:38:52Z</time>
      </trkpt>
      <trkpt lat="44.645837" lon="6.882312">
        <ele>2425.8</ele>
        <time>2015-07-07T08:39:08Z</time>
      </trkpt>
      <trkpt lat="44.645898" lon="6.882402">
        <ele>2429.3</ele>
        <time>2015-07-07T08:39:17Z</time>
      </trkpt>
      <trkpt lat="44.645968" lon="6.882477">
        <ele>2432.7</ele>
        <time>2015-07-07T08:39:26Z</time>
      </trkpt>
      <trkpt lat="44.645975" lon="6.882485">
        <ele>2433.1</ele>
        <time>2015-07-07T08:39:27Z</time>
      </trkpt>
      <trkpt lat="44.646130" lon="6.882565">
        <ele>2439.3</ele>
        <time>2015-07-07T08:39:45Z</time>
      </trkpt>
      <trkpt lat="44.646158" lon="6.882680">
        <ele>2442.2</ele>
        <time>2015-07-07T08:40:26Z</time>
      </trkpt>
      <trkpt lat="44.646198" lon="6.882783">
        <ele>2445.3</ele>
        <time>2015-07-07T08:40:41Z</time>
      </trkpt>
      <trkpt lat="44.646203" lon="6.882792">
        <ele>2445.7</ele>
        <time>2015-07-07T08:40:42Z</time>
      </trkpt>
      <trkpt lat="44.646310" lon="6.882967">
        <ele>2451.4</ele>
        <time>2015-07-07T08:41:12Z</time>
      </trkpt>
      <trkpt lat="44.646342" lon="6.883078">
        <ele>2453.8</ele>
        <time>2015-07-07T08:41:26Z</time>
      </trkpt>
      <trkpt lat="44.646378" lon="6.883193">
        <ele>2456.3</ele>
        <time>2015-07-07T08:41:45Z</time>
      </trkpt>
      <trkpt lat="44.646377" lon="6.883203">
        <ele>2456.5</ele>
        <time>2015-07-07T08:41:46Z</time>
      </trkpt>
      <trkpt lat="44.646295" lon="6.883338">
        <ele>2457.5</ele>
        <time>2015-07-07T08:42:16Z</time>
      </trkpt>
      <trkpt lat="44.646230" lon="6.883260">
        <ele>2455.3</ele>
        <time>2015-07-07T08:46:02Z</time>
      </trkpt>
      <trkpt lat="44.646218" lon="6.883252">
        <ele>2454.9</ele>
        <time>2015-07-07T08:46:03Z</time>
      </trkpt>
      <trkpt lat="44.646072" lon="6.883183">
        <ele>2451.4</ele>
        <time>2015-07-07T08:46:23Z</time>
      </trkpt>
      <trkpt lat="44.645987" lon="6.883143">
        <ele>2449.1</ele>
        <time>2015-07-07T08:46:36Z</time>
      </trkpt>
      <trkpt lat="44.646015" lon="6.883257">
        <ele>2452.3</ele>
        <time>2015-07-07T08:46:53Z</time>
      </trkpt>
      <trkpt lat="44.646063" lon="6.883358">
        <ele>2455.5</ele>
        <time>2015-07-07T08:47:09Z</time>
      </trkpt>
      <trkpt lat="44.646065" lon="6.883365">
        <ele>2455.5</ele>
        <time>2015-07-07T08:47:10Z</time>
      </trkpt>
      <trkpt lat="44.646112" lon="6.883588">
        <ele>2461.9</ele>
        <time>2015-07-07T08:47:44Z</time>
      </trkpt>
      <trkpt lat="44.646147" lon="6.883698">
        <ele>2465.1</ele>
        <time>2015-07-07T08:48:08Z</time>
      </trkpt>
      <trkpt lat="44.646170" lon="6.883795">
        <ele>2467.5</ele>
        <time>2015-07-07T08:48:33Z</time>
      </trkpt>
      <trkpt lat="44.646177" lon="6.883827">
        <ele>2468.5</ele>
        <time>2015-07-07T08:48:34Z</time>
      </trkpt>
      <trkpt lat="44.646103" lon="6.883955">
        <ele>2471.5</ele>
        <time>2015-07-07T08:49:10Z</time>
      </trkpt>
      <trkpt lat="44.646037" lon="6.883882">
        <ele>2469.8</ele>
        <time>2015-07-07T08:49:26Z</time>
      </trkpt>
      <trkpt lat="44.645952" lon="6.883855">
        <ele>2469.0</ele>
        <time>2015-07-07T08:49:41Z</time>
      </trkpt>
      <trkpt lat="44.645945" lon="6.883857">
        <ele>2469.0</ele>
        <time>2015-07-07T08:49:42Z</time>
      </trkpt>
      <trkpt lat="44.645788" lon="6.883927">
        <ele>2472.2</ele>
        <time>2015-07-07T08:50:11Z</time>
      </trkpt>
      <trkpt lat="44.645705" lon="6.883962">
        <ele>2475.6</ele>
        <time>2015-07-07T08:50:28Z</time>
      </trkpt>
      <trkpt lat="44.645633" lon="6.884027">
        <ele>2479.7</ele>
        <time>2015-07-07T08:50:44Z</time>
      </trkpt>
      <trkpt lat="44.645630" lon="6.884033">
        <ele>2479.8</ele>
        <time>2015-07-07T08:50:45Z</time>
      </trkpt>
      <trkpt lat="44.645603" lon="6.884232">
        <ele>2487.4</ele>
        <time>2015-07-07T08:51:22Z</time>
      </trkpt>
      <trkpt lat="44.645677" lon="6.884293">
        <ele>2487.0</ele>
        <time>2015-07-07T08:51:40Z</time>
      </trkpt>
      <trkpt lat="44.645700" lon="6.884408">
        <ele>2490.1</ele>
        <time>2015-07-07T08:52:00Z</time>
      </trkpt>
      <trkpt lat="44.645705" lon="6.884415">
        <ele>2490.3</ele>
        <time>2015-07-07T08:52:01Z</time>
      </trkpt>
      <trkpt lat="44.645860" lon="6.884483">
        <ele>2488.9</ele>
        <time>2015-07-07T08:52:37Z</time>
      </trkpt>
      <trkpt lat="44.646027" lon="6.884552">
        <ele>2489.7</ele>
        <time>2015-07-07T08:53:10Z</time>
      </trkpt>
      <trkpt lat="44.646161" lon="6.884692">
        <ele>2493.2</ele>
        <time>2015-07-07T08:53:35Z</time>
      </trkpt>
      <trkpt lat="44.646190" lon="6.884828">
        <ele>2496.9</ele>
        <time>2015-07-07T08:53:51Z</time>
      </trkpt>
      <trkpt lat="44.646183" lon="6.884948">
        <ele>2501.0</ele>
        <time>2015-07-07T08:54:08Z</time>
      </trkpt>
      <trkpt lat="44.646100" lon="6.884942">
        <ele>2501.4</ele>
        <time>2015-07-07T08:54:21Z</time>
      </trkpt>
      <trkpt lat="44.646093" lon="6.884940">
        <ele>2501.5</ele>
        <time>2015-07-07T08:54:22Z</time>
      </trkpt>
      <trkpt lat="44.645937" lon="6.884972">
        <ele>2504.2</ele>
        <time>2015-07-07T08:54:48Z</time>
      </trkpt>
      <trkpt lat="44.645857" lon="6.885025">
        <ele>2506.7</ele>
        <time>2015-07-07T08:55:00Z</time>
      </trkpt>
      <trkpt lat="44.645780" lon="6.885083">
        <ele>2510.0</ele>
        <time>2015-07-07T08:55:14Z</time>
      </trkpt>
      <trkpt lat="44.645698" lon="6.885122">
        <ele>2513.2</ele>
        <time>2015-07-07T08:55:30Z</time>
      </trkpt>
      <trkpt lat="44.645693" lon="6.885123">
        <ele>2513.3</ele>
        <time>2015-07-07T08:55:31Z</time>
      </trkpt>
      <trkpt lat="44.645753" lon="6.885310">
        <ele>2518.7</ele>
        <time>2015-07-07T08:56:18Z</time>
      </trkpt>
      <trkpt lat="44.645832" lon="6.885365">
        <ele>2519.6</ele>
        <time>2015-07-07T08:56:41Z</time>
      </trkpt>
      <trkpt lat="44.645835" lon="6.885372">
        <ele>2519.5</ele>
        <time>2015-07-07T08:56:42Z</time>
      </trkpt>
      <trkpt lat="44.645957" lon="6.885538">
        <ele>2525.1</ele>
        <time>2015-07-07T08:57:05Z</time>
      </trkpt>
      <trkpt lat="44.646023" lon="6.885618">
        <ele>2527.6</ele>
        <time>2015-07-07T08:57:20Z</time>
      </trkpt>
      <trkpt lat="44.646107" lon="6.885657">
        <ele>2528.6</ele>
        <time>2015-07-07T08:57:35Z</time>
      </trkpt>
      <trkpt lat="44.646162" lon="6.885748">
        <ele>2531.9</ele>
        <time>2015-07-07T08:57:51Z</time>
      </trkpt>
      <trkpt lat="44.646163" lon="6.885755">
        <ele>2532.4</ele>
        <time>2015-07-07T08:57:52Z</time>
      </trkpt>
      <trkpt lat="44.646290" lon="6.885902">
        <ele>2537.5</ele>
        <time>2015-07-07T08:58:25Z</time>
      </trkpt>
      <trkpt lat="44.646348" lon="6.885992">
        <ele>2541.1</ele>
        <time>2015-07-07T08:58:42Z</time>
      </trkpt>
      <trkpt lat="44.646395" lon="6.886098">
        <ele>2545.2</ele>
        <time>2015-07-07T08:58:59Z</time>
      </trkpt>
      <trkpt lat="44.646397" lon="6.886103">
        <ele>2545.2</ele>
        <time>2015-07-07T08:59:00Z</time>
      </trkpt>
      <trkpt lat="44.646528" lon="6.886252">
        <ele>2551.2</ele>
        <time>2015-07-07T08:59:31Z</time>
      </trkpt>
      <trkpt lat="44.646603" lon="6.886313">
        <ele>2553.5</ele>
        <time>2015-07-07T08:59:49Z</time>
      </trkpt>
      <trkpt lat="44.646672" lon="6.886395">
        <ele>2556.7</ele>
        <time>2015-07-07T09:00:12Z</time>
      </trkpt>
      <trkpt lat="44.646678" lon="6.886397">
        <ele>2556.9</ele>
        <time>2015-07-07T09:00:13Z</time>
      </trkpt>
      <trkpt lat="44.646788" lon="6.886538">
        <ele>2566.7</ele>
        <time>2015-07-07T09:00:55Z</time>
      </trkpt>
      <trkpt lat="44.646837" lon="6.886642">
        <ele>2572.9</ele>
        <time>2015-07-07T09:01:16Z</time>
      </trkpt>
      <trkpt lat="44.646842" lon="6.886645">
        <ele>2573.0</ele>
        <time>2015-07-07T09:01:17Z</time>
      </trkpt>
      <trkpt lat="44.647003" lon="6.886722">
        <ele>2580.8</ele>
        <time>2015-07-07T09:02:04Z</time>
      </trkpt>
      <trkpt lat="44.646985" lon="6.886845">
        <ele>2582.5</ele>
        <time>2015-07-07T09:02:19Z</time>
      </trkpt>
      <trkpt lat="44.646987" lon="6.886853">
        <ele>2582.9</ele>
        <time>2015-07-07T09:02:20Z</time>
      </trkpt>
      <trkpt lat="44.646995" lon="6.887093">
        <ele>2587.8</ele>
        <time>2015-07-07T09:02:50Z</time>
      </trkpt>
      <trkpt lat="44.647063" lon="6.887167">
        <ele>2591.4</ele>
        <time>2015-07-07T09:03:09Z</time>
      </trkpt>
      <trkpt lat="44.647128" lon="6.887247">
        <ele>2594.9</ele>
        <time>2015-07-07T09:03:22Z</time>
      </trkpt>
      <trkpt lat="44.647132" lon="6.887252">
        <ele>2595.2</ele>
        <time>2015-07-07T09:03:23Z</time>
      </trkpt>
      <trkpt lat="44.647242" lon="6.887433">
        <ele>2601.7</ele>
        <time>2015-07-07T09:04:20Z</time>
      </trkpt>
      <trkpt lat="44.647290" lon="6.887523">
        <ele>2604.3</ele>
        <time>2015-07-07T09:04:35Z</time>
      </trkpt>
      <trkpt lat="44.647298" lon="6.887533">
        <ele>2604.5</ele>
        <time>2015-07-07T09:04:36Z</time>
      </trkpt>
      <trkpt lat="44.647435" lon="6.887645">
        <ele>2608.4</ele>
        <time>2015-07-07T09:04:54Z</time>
      </trkpt>
      <trkpt lat="44.647505" lon="6.887713">
        <ele>2610.3</ele>
        <time>2015-07-07T09:05:04Z</time>
      </trkpt>
      <trkpt lat="44.647570" lon="6.887787">
        <ele>2613.0</ele>
        <time>2015-07-07T09:05:15Z</time>
      </trkpt>
      <trkpt lat="44.647628" lon="6.887868">
        <ele>2615.5</ele>
        <time>2015-07-07T09:05:27Z</time>
      </trkpt>
      <trkpt lat="44.647705" lon="6.887920">
        <ele>2618.7</ele>
        <time>2015-07-07T09:05:38Z</time>
      </trkpt>
      <trkpt lat="44.647710" lon="6.887925">
        <ele>2619.0</ele>
        <time>2015-07-07T09:05:39Z</time>
      </trkpt>
      <trkpt lat="44.647845" lon="6.888055">
        <ele>2624.9</ele>
        <time>2015-07-07T09:06:00Z</time>
      </trkpt>
      <trkpt lat="44.647902" lon="6.888150">
        <ele>2627.6</ele>
        <time>2015-07-07T09:06:12Z</time>
      </trkpt>
      <trkpt lat="44.647955" lon="6.888250">
        <ele>2630.1</ele>
        <time>2015-07-07T09:06:25Z</time>
      </trkpt>
      <trkpt lat="44.647967" lon="6.888367">
        <ele>2630.6</ele>
        <time>2015-07-07T09:06:38Z</time>
      </trkpt>
      <trkpt lat="44.647980" lon="6.888487">
        <ele>2629.9</ele>
        <time>2015-07-07T09:07:04Z</time>
      </trkpt>
      <trkpt lat="44.647982" lon="6.888497">
        <ele>2629.8</ele>
        <time>2015-07-07T09:07:05Z</time>
      </trkpt>
      <trkpt lat="44.648048" lon="6.888705">
        <ele>2630.2</ele>
        <time>2015-07-07T09:07:28Z</time>
      </trkpt>
      <trkpt lat="44.648108" lon="6.888787">
        <ele>2631.3</ele>
        <time>2015-07-07T09:07:39Z</time>
      </trkpt>
      <trkpt lat="44.648165" lon="6.888883">
        <ele>2632.1</ele>
        <time>2015-07-07T09:07:49Z</time>
      </trkpt>
      <trkpt lat="44.648238" lon="6.888938">
        <ele>2633.8</ele>
        <time>2015-07-07T09:07:59Z</time>
      </trkpt>
      <trkpt lat="44.648307" lon="6.889003">
        <ele>2635.0</ele>
        <time>2015-07-07T09:08:10Z</time>
      </trkpt>
      <trkpt lat="44.648315" lon="6.889012">
        <ele>2635.1</ele>
        <time>2015-07-07T09:08:11Z</time>
      </trkpt>
      <trkpt lat="44.648427" lon="6.888888">
        <ele>2641.9</ele>
        <time>2015-07-07T09:08:52Z</time>
      </trkpt>
      <trkpt lat="44.648512" lon="6.888917">
        <ele>2645.2</ele>
        <time>2015-07-07T09:09:09Z</time>
      </trkpt>
      <trkpt lat="44.648590" lon="6.888967">
        <ele>2648.1</ele>
        <time>2015-07-07T09:09:29Z</time>
      </trkpt>
      <trkpt lat="44.648595" lon="6.888967">
        <ele>2648.4</ele>
        <time>2015-07-07T09:09:30Z</time>
      </trkpt>
      <trkpt lat="44.648763" lon="6.888977">
        <ele>2655.9</ele>
        <time>2015-07-07T09:10:16Z</time>
      </trkpt>
      <trkpt lat="44.648843" lon="6.889030">
        <ele>2659.6</ele>
        <time>2015-07-07T09:10:31Z</time>
      </trkpt>
      <trkpt lat="44.648848" lon="6.889040">
        <ele>2659.7</ele>
        <time>2015-07-07T09:10:32Z</time>
      </trkpt>
      <trkpt lat="44.648932" lon="6.889237">
        <ele>2663.7</ele>
        <time>2015-07-07T09:10:54Z</time>
      </trkpt>
      <trkpt lat="44.648965" lon="6.889347">
        <ele>2665.1</ele>
        <time>2015-07-07T09:11:06Z</time>
      </trkpt>
      <trkpt lat="44.649002" lon="6.889462">
        <ele>2666.8</ele>
        <time>2015-07-07T09:11:23Z</time>
      </trkpt>
      <trkpt lat="44.649055" lon="6.889558">
        <ele>2669.1</ele>
        <time>2015-07-07T09:11:37Z</time>
      </trkpt>
      <trkpt lat="44.649057" lon="6.889565">
        <ele>2669.2</ele>
        <time>2015-07-07T09:11:38Z</time>
      </trkpt>
      <trkpt lat="44.649132" lon="6.889778">
        <ele>2672.2</ele>
        <time>2015-07-07T09:12:06Z</time>
      </trkpt>
      <trkpt lat="44.649170" lon="6.889882">
        <ele>2673.5</ele>
        <time>2015-07-07T09:12:18Z</time>
      </trkpt>
      <trkpt lat="44.649203" lon="6.889990">
        <ele>2674.1</ele>
        <time>2015-07-07T09:12:28Z</time>
      </trkpt>
      <trkpt lat="44.649240" lon="6.890102">
        <ele>2676.8</ele>
        <time>2015-07-07T09:12:39Z</time>
      </trkpt>
      <trkpt lat="44.649242" lon="6.890110">
        <ele>2677.0</ele>
        <time>2015-07-07T09:12:40Z</time>
      </trkpt>
      <trkpt lat="44.649267" lon="6.890330">
        <ele>2681.5</ele>
        <time>2015-07-07T09:13:28Z</time>
      </trkpt>
      <trkpt lat="44.649280" lon="6.890443">
        <ele>2683.9</ele>
        <time>2015-07-07T09:13:43Z</time>
      </trkpt>
      <trkpt lat="44.649280" lon="6.890457">
        <ele>2684.1</ele>
        <time>2015-07-07T09:13:44Z</time>
      </trkpt>
      <trkpt lat="44.649320" lon="6.890675">
        <ele>2688.7</ele>
        <time>2015-07-07T09:14:13Z</time>
      </trkpt>
      <trkpt lat="44.649403" lon="6.890640">
        <ele>2690.8</ele>
        <time>2015-07-07T09:14:47Z</time>
      </trkpt>
      <trkpt lat="44.649408" lon="6.890632">
        <ele>2690.7</ele>
        <time>2015-07-07T09:14:48Z</time>
      </trkpt>
      <trkpt lat="44.649522" lon="6.890475">
        <ele>2691.5</ele>
        <time>2015-07-07T09:15:16Z</time>
      </trkpt>
      <trkpt lat="44.649580" lon="6.890382">
        <ele>2691.7</ele>
        <time>2015-07-07T09:15:30Z</time>
      </trkpt>
      <trkpt lat="44.649633" lon="6.890285">
        <ele>2691.9</ele>
        <time>2015-07-07T09:15:49Z</time>
      </trkpt>
      <trkpt lat="44.649633" lon="6.890278">
        <ele>2691.7</ele>
        <time>2015-07-07T09:15:50Z</time>
      </trkpt>
      <trkpt lat="44.649708" lon="6.890067">
        <ele>2690.4</ele>
        <time>2015-07-07T09:16:18Z</time>
      </trkpt>
      <trkpt lat="44.649753" lon="6.889963">
        <ele>2690.2</ele>
        <time>2015-07-07T09:16:36Z</time>
      </trkpt>
      <trkpt lat="44.649797" lon="6.889855">
        <ele>2690.4</ele>
        <time>2015-07-07T09:16:56Z</time>
      </trkpt>
      <trkpt lat="44.649802" lon="6.889852">
        <ele>2690.3</ele>
        <time>2015-07-07T09:16:57Z</time>
      </trkpt>
      <trkpt lat="44.649907" lon="6.889660">
        <ele>2690.7</ele>
        <time>2015-07-07T09:18:08Z</time>
      </trkpt>
      <trkpt lat="44.649912" lon="6.889658">
        <ele>2690.6</ele>
        <time>2015-07-07T09:18:09Z</time>
      </trkpt>
      <trkpt lat="44.649945" lon="6.889897">
        <ele>2694.8</ele>
        <time>2015-07-07T09:19:06Z</time>
      </trkpt>
      <trkpt lat="44.649947" lon="6.890017">
        <ele>2696.7</ele>
        <time>2015-07-07T09:19:23Z</time>
      </trkpt>
      <trkpt lat="44.649948" lon="6.890023">
        <ele>2696.7</ele>
        <time>2015-07-07T09:19:24Z</time>
      </trkpt>
      <trkpt lat="44.649995" lon="6.890252">
        <ele>2702.1</ele>
        <time>2015-07-07T09:19:54Z</time>
      </trkpt>
      <trkpt lat="44.650028" lon="6.890377">
        <ele>2704.3</ele>
        <time>2015-07-07T09:20:11Z</time>
      </trkpt>
      <trkpt lat="44.650033" lon="6.890502">
        <ele>2706.2</ele>
        <time>2015-07-07T09:20:28Z</time>
      </trkpt>
      <trkpt lat="44.650032" lon="6.890507">
        <ele>2706.5</ele>
        <time>2015-07-07T09:20:29Z</time>
      </trkpt>
      <trkpt lat="44.650022" lon="6.890737">
        <ele>2710.1</ele>
        <time>2015-07-07T09:21:03Z</time>
      </trkpt>
      <trkpt lat="44.650022" lon="6.890858">
        <ele>2712.2</ele>
        <time>2015-07-07T09:21:18Z</time>
      </trkpt>
      <trkpt lat="44.650023" lon="6.890980">
        <ele>2713.7</ele>
        <time>2015-07-07T09:21:35Z</time>
      </trkpt>
      <trkpt lat="44.650025" lon="6.890988">
        <ele>2713.9</ele>
        <time>2015-07-07T09:21:36Z</time>
      </trkpt>
      <trkpt lat="44.650070" lon="6.891208">
        <ele>2716.3</ele>
        <time>2015-07-07T09:22:08Z</time>
      </trkpt>
      <trkpt lat="44.650113" lon="6.891318">
        <ele>2717.4</ele>
        <time>2015-07-07T09:22:25Z</time>
      </trkpt>
      <trkpt lat="44.650147" lon="6.891428">
        <ele>2718.5</ele>
        <time>2015-07-07T09:22:43Z</time>
      </trkpt>
      <trkpt lat="44.650148" lon="6.891435">
        <ele>2718.6</ele>
        <time>2015-07-07T09:22:44Z</time>
      </trkpt>
      <trkpt lat="44.650232" lon="6.891645">
        <ele>2720.4</ele>
        <time>2015-07-07T09:23:44Z</time>
      </trkpt>
      <trkpt lat="44.650235" lon="6.891653">
        <ele>2720.6</ele>
        <time>2015-07-07T09:23:45Z</time>
      </trkpt>
      <trkpt lat="44.650333" lon="6.891850">
        <ele>2722.1</ele>
        <time>2015-07-07T09:24:16Z</time>
      </trkpt>
      <trkpt lat="44.650378" lon="6.891955">
        <ele>2723.2</ele>
        <time>2015-07-07T09:24:46Z</time>
      </trkpt>
      <trkpt lat="44.650382" lon="6.891960">
        <ele>2723.2</ele>
        <time>2015-07-07T09:24:47Z</time>
      </trkpt>
      <trkpt lat="44.650475" lon="6.892163">
        <ele>2725.6</ele>
        <time>2015-07-07T09:25:12Z</time>
      </trkpt>
      <trkpt lat="44.650492" lon="6.892287">
        <ele>2727.2</ele>
        <time>2015-07-07T09:25:23Z</time>
      </trkpt>
      <trkpt lat="44.650515" lon="6.892402">
        <ele>2728.8</ele>
        <time>2015-07-07T09:25:37Z</time>
      </trkpt>
      <trkpt lat="44.650555" lon="6.892507">
        <ele>2730.3</ele>
        <time>2015-07-07T09:25:52Z</time>
      </trkpt>
      <trkpt lat="44.650558" lon="6.892517">
        <ele>2730.6</ele>
        <time>2015-07-07T09:25:53Z</time>
      </trkpt>
      <trkpt lat="44.650638" lon="6.892718">
        <ele>2734.2</ele>
        <time>2015-07-07T09:26:28Z</time>
      </trkpt>
      <trkpt lat="44.650630" lon="6.892825">
        <ele>2736.4</ele>
        <time>2015-07-07T09:27:00Z</time>
      </trkpt>
      <trkpt lat="44.650633" lon="6.892845">
        <ele>2736.7</ele>
        <time>2015-07-07T09:27:01Z</time>
      </trkpt>
      <trkpt lat="44.650653" lon="6.893070">
        <ele>2741.0</ele>
        <time>2015-07-07T09:27:38Z</time>
      </trkpt>
      <trkpt lat="44.650668" lon="6.893192">
        <ele>2743.6</ele>
        <time>2015-07-07T09:27:52Z</time>
      </trkpt>
      <trkpt lat="44.650722" lon="6.893290">
        <ele>2745.9</ele>
        <time>2015-07-07T09:28:12Z</time>
      </trkpt>
      <trkpt lat="44.650725" lon="6.893295">
        <ele>2746.2</ele>
        <time>2015-07-07T09:28:13Z</time>
      </trkpt>
      <trkpt lat="44.650830" lon="6.893473">
        <ele>2749.2</ele>
        <time>2015-07-07T09:28:50Z</time>
      </trkpt>
      <trkpt lat="44.650878" lon="6.893577">
        <ele>2749.3</ele>
        <time>2015-07-07T09:29:10Z</time>
      </trkpt>
      <trkpt lat="44.650895" lon="6.893697">
        <ele>2750.2</ele>
        <time>2015-07-07T09:29:25Z</time>
      </trkpt>
      <trkpt lat="44.650897" lon="6.893703">
        <ele>2750.2</ele>
        <time>2015-07-07T09:29:26Z</time>
      </trkpt>
      <trkpt lat="44.650893" lon="6.893942">
        <ele>2752.6</ele>
        <time>2015-07-07T09:29:57Z</time>
      </trkpt>
      <trkpt lat="44.650883" lon="6.894063">
        <ele>2754.2</ele>
        <time>2015-07-07T09:30:16Z</time>
      </trkpt>
      <trkpt lat="44.650853" lon="6.894177">
        <ele>2755.7</ele>
        <time>2015-07-07T09:30:31Z</time>
      </trkpt>
      <trkpt lat="44.650853" lon="6.894187">
        <ele>2755.9</ele>
        <time>2015-07-07T09:30:32Z</time>
      </trkpt>
      <trkpt lat="44.650932" lon="6.894370">
        <ele>2757.3</ele>
        <time>2015-07-07T09:31:05Z</time>
      </trkpt>
      <trkpt lat="44.651000" lon="6.894452">
        <ele>2757.7</ele>
        <time>2015-07-07T09:31:29Z</time>
      </trkpt>
      <trkpt lat="44.651078" lon="6.894495">
        <ele>2757.2</ele>
        <time>2015-07-07T09:31:40Z</time>
      </trkpt>
      <trkpt lat="44.651083" lon="6.894502">
        <ele>2757.1</ele>
        <time>2015-07-07T09:31:41Z</time>
      </trkpt>
      <trkpt lat="44.651168" lon="6.894703">
        <ele>2759.2</ele>
        <time>2015-07-07T09:32:04Z</time>
      </trkpt>
      <trkpt lat="44.651208" lon="6.894815">
        <ele>2760.4</ele>
        <time>2015-07-07T09:32:16Z</time>
      </trkpt>
      <trkpt lat="44.651238" lon="6.894930">
        <ele>2761.9</ele>
        <time>2015-07-07T09:32:28Z</time>
      </trkpt>
      <trkpt lat="44.651285" lon="6.895027">
        <ele>2763.0</ele>
        <time>2015-07-07T09:32:42Z</time>
      </trkpt>
      <trkpt lat="44.651290" lon="6.895037">
        <ele>2762.9</ele>
        <time>2015-07-07T09:32:43Z</time>
      </trkpt>
      <trkpt lat="44.651362" lon="6.895238">
        <ele>2765.9</ele>
        <time>2015-07-07T09:33:02Z</time>
      </trkpt>
      <trkpt lat="44.651390" lon="6.895357">
        <ele>2767.8</ele>
        <time>2015-07-07T09:33:13Z</time>
      </trkpt>
      <trkpt lat="44.651430" lon="6.895467">
        <ele>2769.8</ele>
        <time>2015-07-07T09:33:24Z</time>
      </trkpt>
      <trkpt lat="44.651470" lon="6.895575">
        <ele>2771.6</ele>
        <time>2015-07-07T09:33:44Z</time>
      </trkpt>
      <trkpt lat="44.651477" lon="6.895583">
        <ele>2771.6</ele>
        <time>2015-07-07T09:33:45Z</time>
      </trkpt>
      <trkpt lat="44.651577" lon="6.895773">
        <ele>2775.5</ele>
        <time>2015-07-07T09:34:06Z</time>
      </trkpt>
      <trkpt lat="44.651655" lon="6.895828">
        <ele>2776.7</ele>
        <time>2015-07-07T09:34:17Z</time>
      </trkpt>
      <trkpt lat="44.651730" lon="6.895885">
        <ele>2779.5</ele>
        <time>2015-07-07T09:34:30Z</time>
      </trkpt>
      <trkpt lat="44.651773" lon="6.895993">
        <ele>2782.5</ele>
        <time>2015-07-07T09:34:46Z</time>
      </trkpt>
      <trkpt lat="44.651775" lon="6.895997">
        <ele>2782.6</ele>
        <time>2015-07-07T09:34:47Z</time>
      </trkpt>
      <trkpt lat="44.651738" lon="6.895868">
        <ele>2779.1</ele>
        <time>2015-07-07T09:39:07Z</time>
      </trkpt>
      <trkpt lat="44.651780" lon="6.896000">
        <ele>2782.7</ele>
        <time>2015-07-07T09:40:22Z</time>
      </trkpt>
      <trkpt lat="44.651852" lon="6.896072">
        <ele>2785.9</ele>
        <time>2015-07-07T09:42:52Z</time>
      </trkpt>
      <trkpt lat="44.651948" lon="6.896237">
        <ele>2791.7</ele>
        <time>2015-07-07T09:43:18Z</time>
      </trkpt>
      <trkpt lat="44.651998" lon="6.896338">
        <ele>2794.8</ele>
        <time>2015-07-07T09:43:28Z</time>
      </trkpt>
      <trkpt lat="44.652067" lon="6.896420">
        <ele>2798.4</ele>
        <time>2015-07-07T09:43:38Z</time>
      </trkpt>
      <trkpt lat="44.652142" lon="6.896480">
        <ele>2801.4</ele>
        <time>2015-07-07T09:43:49Z</time>
      </trkpt>
      <trkpt lat="44.652213" lon="6.896552">
        <ele>2804.9</ele>
        <time>2015-07-07T09:44:04Z</time>
      </trkpt>
      <trkpt lat="44.652218" lon="6.896558">
        <ele>2805.1</ele>
        <time>2015-07-07T09:44:05Z</time>
      </trkpt>
      <trkpt lat="44.652358" lon="6.896680">
        <ele>2811.5</ele>
        <time>2015-07-07T09:44:37Z</time>
      </trkpt>
      <trkpt lat="44.652440" lon="6.896715">
        <ele>2814.0</ele>
        <time>2015-07-07T09:44:51Z</time>
      </trkpt>
      <trkpt lat="44.652502" lon="6.896798">
        <ele>2816.8</ele>
        <time>2015-07-07T09:45:14Z</time>
      </trkpt>
      <trkpt lat="44.652507" lon="6.896802">
        <ele>2816.9</ele>
        <time>2015-07-07T09:45:15Z</time>
      </trkpt>
      <trkpt lat="44.652623" lon="6.896972">
        <ele>2823.5</ele>
        <time>2015-07-07T09:46:02Z</time>
      </trkpt>
      <trkpt lat="44.652685" lon="6.897055">
        <ele>2827.0</ele>
        <time>2015-07-07T09:46:15Z</time>
      </trkpt>
      <trkpt lat="44.652710" lon="6.897170">
        <ele>2829.9</ele>
        <time>2015-07-07T09:46:33Z</time>
      </trkpt>
      <trkpt lat="44.652717" lon="6.897177">
        <ele>2830.4</ele>
        <time>2015-07-07T09:46:34Z</time>
      </trkpt>
      <trkpt lat="44.652820" lon="6.897353">
        <ele>2837.8</ele>
        <time>2015-07-07T09:46:56Z</time>
      </trkpt>
      <trkpt lat="44.652875" lon="6.897447">
        <ele>2842.0</ele>
        <time>2015-07-07T09:47:08Z</time>
      </trkpt>
      <trkpt lat="44.652917" lon="6.897553">
        <ele>2845.6</ele>
        <time>2015-07-07T09:47:27Z</time>
      </trkpt>
      <trkpt lat="44.652962" lon="6.897652">
        <ele>2848.6</ele>
        <time>2015-07-07T09:47:38Z</time>
      </trkpt>
      <trkpt lat="44.652968" lon="6.897660">
        <ele>2849.1</ele>
        <time>2015-07-07T09:47:39Z</time>
      </trkpt>
      <trkpt lat="44.653060" lon="6.897852">
        <ele>2855.3</ele>
        <time>2015-07-07T09:48:01Z</time>
      </trkpt>
      <trkpt lat="44.653110" lon="6.897953">
        <ele>2858.7</ele>
        <time>2015-07-07T09:48:15Z</time>
      </trkpt>
      <trkpt lat="44.653165" lon="6.898047">
        <ele>2862.3</ele>
        <time>2015-07-07T09:48:31Z</time>
      </trkpt>
      <trkpt lat="44.653220" lon="6.898143">
        <ele>2865.7</ele>
        <time>2015-07-07T09:48:46Z</time>
      </trkpt>
      <trkpt lat="44.653223" lon="6.898150">
        <ele>2866.0</ele>
        <time>2015-07-07T09:48:47Z</time>
      </trkpt>
      <trkpt lat="44.653345" lon="6.898313">
        <ele>2873.1</ele>
        <time>2015-07-07T09:49:18Z</time>
      </trkpt>
      <trkpt lat="44.653383" lon="6.898427">
        <ele>2874.3</ele>
        <time>2015-07-07T09:49:33Z</time>
      </trkpt>
      <trkpt lat="44.653417" lon="6.898540">
        <ele>2875.1</ele>
        <time>2015-07-07T09:49:48Z</time>
      </trkpt>
      <trkpt lat="44.653420" lon="6.898547">
        <ele>2875.2</ele>
        <time>2015-07-07T09:49:49Z</time>
      </trkpt>
      <trkpt lat="44.653513" lon="6.898745">
        <ele>2877.9</ele>
        <time>2015-07-07T09:50:22Z</time>
      </trkpt>
      <trkpt lat="44.653575" lon="6.898837">
        <ele>2880.1</ele>
        <time>2015-07-07T09:50:41Z</time>
      </trkpt>
      <trkpt lat="44.653633" lon="6.898930">
        <ele>2882.0</ele>
        <time>2015-07-07T09:51:05Z</time>
      </trkpt>
      <trkpt lat="44.653638" lon="6.898933">
        <ele>2882.2</ele>
        <time>2015-07-07T09:51:06Z</time>
      </trkpt>
      <trkpt lat="44.653755" lon="6.899097">
        <ele>2886.7</ele>
        <time>2015-07-07T09:51:35Z</time>
      </trkpt>
      <trkpt lat="44.653810" lon="6.899195">
        <ele>2888.7</ele>
        <time>2015-07-07T09:51:49Z</time>
      </trkpt>
      <trkpt lat="44.653875" lon="6.899282">
        <ele>2890.2</ele>
        <time>2015-07-07T09:52:06Z</time>
      </trkpt>
      <trkpt lat="44.653937" lon="6.899363">
        <ele>2891.6</ele>
        <time>2015-07-07T09:52:25Z</time>
      </trkpt>
      <trkpt lat="44.653940" lon="6.899370">
        <ele>2891.7</ele>
        <time>2015-07-07T09:52:26Z</time>
      </trkpt>
      <trkpt lat="44.653973" lon="6.899563">
        <ele>2890.5</ele>
        <time>2015-07-07T09:52:58Z</time>
      </trkpt>
      <trkpt lat="44.654028" lon="6.899662">
        <ele>2891.1</ele>
        <time>2015-07-07T09:53:26Z</time>
      </trkpt>
      <trkpt lat="44.654105" lon="6.899725">
        <ele>2892.8</ele>
        <time>2015-07-07T09:53:38Z</time>
      </trkpt>
      <trkpt lat="44.654113" lon="6.899730">
        <ele>2893.2</ele>
        <time>2015-07-07T09:53:39Z</time>
      </trkpt>
      <trkpt lat="44.654265" lon="6.899807">
        <ele>2896.5</ele>
        <time>2015-07-07T09:54:00Z</time>
      </trkpt>
      <trkpt lat="44.654330" lon="6.899887">
        <ele>2897.4</ele>
        <time>2015-07-07T09:54:15Z</time>
      </trkpt>
      <trkpt lat="44.654407" lon="6.899940">
        <ele>2899.2</ele>
        <time>2015-07-07T09:54:24Z</time>
      </trkpt>
      <trkpt lat="44.654472" lon="6.900025">
        <ele>2900.4</ele>
        <time>2015-07-07T09:54:34Z</time>
      </trkpt>
      <trkpt lat="44.654518" lon="6.900132">
        <ele>2901.1</ele>
        <time>2015-07-07T09:54:46Z</time>
      </trkpt>
      <trkpt lat="44.654522" lon="6.900140">
        <ele>2901.2</ele>
        <time>2015-07-07T09:54:47Z</time>
      </trkpt>
      <trkpt lat="44.654650" lon="6.900280">
        <ele>2904.7</ele>
        <time>2015-07-07T09:55:05Z</time>
      </trkpt>
      <trkpt lat="44.654720" lon="6.900345">
        <ele>2906.6</ele>
        <time>2015-07-07T09:55:14Z</time>
      </trkpt>
      <trkpt lat="44.654770" lon="6.900450">
        <ele>2908.0</ele>
        <time>2015-07-07T09:55:25Z</time>
      </trkpt>
      <trkpt lat="44.654797" lon="6.900565">
        <ele>2908.4</ele>
        <time>2015-07-07T09:55:38Z</time>
      </trkpt>
      <trkpt lat="44.654847" lon="6.900665">
        <ele>2909.8</ele>
        <time>2015-07-07T09:55:52Z</time>
      </trkpt>
      <trkpt lat="44.654850" lon="6.900673">
        <ele>2909.9</ele>
        <time>2015-07-07T09:55:53Z</time>
      </trkpt>
      <trkpt lat="44.654910" lon="6.900882">
        <ele>2911.8</ele>
        <time>2015-07-07T09:56:15Z</time>
      </trkpt>
      <trkpt lat="44.654962" lon="6.900975">
        <ele>2914.3</ele>
        <time>2015-07-07T09:56:28Z</time>
      </trkpt>
      <trkpt lat="44.655033" lon="6.901037">
        <ele>2917.4</ele>
        <time>2015-07-07T09:56:40Z</time>
      </trkpt>
      <trkpt lat="44.655085" lon="6.901138">
        <ele>2920.2</ele>
        <time>2015-07-07T09:56:55Z</time>
      </trkpt>
      <trkpt lat="44.655088" lon="6.901145">
        <ele>2920.4</ele>
        <time>2015-07-07T09:56:56Z</time>
      </trkpt>
      <trkpt lat="44.655162" lon="6.901330">
        <ele>2924.6</ele>
        <time>2015-07-07T09:57:42Z</time>
      </trkpt>
      <trkpt lat="44.655215" lon="6.901432">
        <ele>2927.3</ele>
        <time>2015-07-07T09:57:58Z</time>
      </trkpt>
      <trkpt lat="44.655217" lon="6.901438">
        <ele>2927.4</ele>
        <time>2015-07-07T09:57:59Z</time>
      </trkpt>
      <trkpt lat="44.655368" lon="6.901543">
        <ele>2934.4</ele>
        <time>2015-07-07T09:58:36Z</time>
      </trkpt>
      <trkpt lat="44.655428" lon="6.901627">
        <ele>2937.4</ele>
        <time>2015-07-07T09:58:53Z</time>
      </trkpt>
      <trkpt lat="44.655503" lon="6.901688">
        <ele>2941.0</ele>
        <time>2015-07-07T09:59:09Z</time>
      </trkpt>
      <trkpt lat="44.655505" lon="6.901695">
        <ele>2941.2</ele>
        <time>2015-07-07T09:59:10Z</time>
      </trkpt>
      <trkpt lat="44.655653" lon="6.901777">
        <ele>2948.7</ele>
        <time>2015-07-07T10:00:11Z</time>
      </trkpt>
      <trkpt lat="44.655670" lon="6.901777">
        <ele>2949.4</ele>
        <time>2015-07-07T10:00:12Z</time>
      </trkpt>
      <trkpt lat="44.655747" lon="6.901988">
        <ele>2955.5</ele>
        <time>2015-07-07T10:01:17Z</time>
      </trkpt>
      <trkpt lat="44.655747" lon="6.901993">
        <ele>2955.7</ele>
        <time>2015-07-07T10:01:18Z</time>
      </trkpt>
      <trkpt lat="44.655900" lon="6.902080">
        <ele>2962.9</ele>
        <time>2015-07-07T10:02:05Z</time>
      </trkpt>
      <trkpt lat="44.655983" lon="6.902112">
        <ele>2966.4</ele>
        <time>2015-07-07T10:03:34Z</time>
      </trkpt>
      <trkpt lat="44.655988" lon="6.902120">
        <ele>2966.7</ele>
        <time>2015-07-07T10:03:35Z</time>
      </trkpt>
      <trkpt lat="44.656128" lon="6.902228">
        <ele>2973.4</ele>
        <time>2015-07-07T10:04:15Z</time>
      </trkpt>
      <trkpt lat="44.656187" lon="6.902190">
        <ele>2975.1</ele>
        <time>2015-07-07T10:05:31Z</time>
      </trkpt>
      <trkpt lat="44.656220" lon="6.902200">
        <ele>2976.5</ele>
        <time>2015-07-07T10:05:32Z</time>
      </trkpt>
      <trkpt lat="44.656350" lon="6.902257">
        <ele>2982.0</ele>
        <time>2015-07-07T10:06:05Z</time>
      </trkpt>
      <trkpt lat="44.656432" lon="6.902292">
        <ele>2985.5</ele>
        <time>2015-07-07T10:06:27Z</time>
      </trkpt>
      <trkpt lat="44.656517" lon="6.902297">
        <ele>2988.7</ele>
        <time>2015-07-07T10:07:40Z</time>
      </trkpt>
      <trkpt lat="44.656522" lon="6.902298">
        <ele>2988.9</ele>
        <time>2015-07-07T10:07:41Z</time>
      </trkpt>
      <trkpt lat="44.656675" lon="6.902407">
        <ele>2995.3</ele>
        <time>2015-07-07T10:08:19Z</time>
      </trkpt>
      <trkpt lat="44.656762" lon="6.902440">
        <ele>2991.3</ele>
        <time>2015-07-07T10:08:50Z</time>
      </trkpt>
      <trkpt lat="44.656775" lon="6.902442">
        <ele>2990.7</ele>
        <time>2015-07-07T10:08:51Z</time>
      </trkpt>
      <trkpt lat="44.656905" lon="6.902513">
        <ele>2985.5</ele>
        <time>2015-07-07T10:11:01Z</time>
      </trkpt>
      <trkpt lat="44.656910" lon="6.902523">
        <ele>2985.1</ele>
        <time>2015-07-07T10:11:02Z</time>
      </trkpt>
      <trkpt lat="44.657050" lon="6.902630">
        <ele>2979.2</ele>
        <time>2015-07-07T10:11:35Z</time>
      </trkpt>
      <trkpt lat="44.657138" lon="6.902647">
        <ele>2974.6</ele>
        <time>2015-07-07T10:12:04Z</time>
      </trkpt>
      <trkpt lat="44.657143" lon="6.902642">
        <ele>2974.2</ele>
        <time>2015-07-07T10:12:05Z</time>
      </trkpt>
      <trkpt lat="44.657285" lon="6.902785">
        <ele>2967.0</ele>
        <time>2015-07-07T10:13:06Z</time>
      </trkpt>
      <trkpt lat="44.657287" lon="6.902788">
        <ele>2966.8</ele>
        <time>2015-07-07T10:13:07Z</time>
      </trkpt>
      <trkpt lat="44.657428" lon="6.902923">
        <ele>2958.4</ele>
        <time>2015-07-07T10:14:23Z</time>
      </trkpt>
      <trkpt lat="44.657432" lon="6.902925">
        <ele>2958.2</ele>
        <time>2015-07-07T10:14:24Z</time>
      </trkpt>
      <trkpt lat="44.657597" lon="6.902945">
        <ele>2944.5</ele>
        <time>2015-07-07T10:15:29Z</time>
      </trkpt>
      <trkpt lat="44.657597" lon="6.902950">
        <ele>2944.5</ele>
        <time>2015-07-07T10:15:30Z</time>
      </trkpt>
      <trkpt lat="44.657603" lon="6.903180">
        <ele>2943.0</ele>
        <time>2015-07-07T10:16:14Z</time>
      </trkpt>
      <trkpt lat="44.657615" lon="6.903302">
        <ele>2941.3</ele>
        <time>2015-07-07T10:16:45Z</time>
      </trkpt>
      <trkpt lat="44.657615" lon="6.903307">
        <ele>2941.3</ele>
        <time>2015-07-07T10:16:46Z</time>
      </trkpt>
      <trkpt lat="44.657617" lon="6.903428">
        <ele>2940.3</ele>
        <time>2015-07-07T10:21:50Z</time>
      </trkpt>
      <trkpt lat="44.657550" lon="6.903642">
        <ele>2943.9</ele>
        <time>2015-07-07T10:25:27Z</time>
      </trkpt>
      <trkpt lat="44.657540" lon="6.903662">
        <ele>2944.5</ele>
        <time>2015-07-07T10:25:28Z</time>
      </trkpt>
      <trkpt lat="44.657453" lon="6.903852">
        <ele>2949.8</ele>
        <time>2015-07-07T10:25:48Z</time>
      </trkpt>
      <trkpt lat="44.657412" lon="6.903953">
        <ele>2952.3</ele>
        <time>2015-07-07T10:26:00Z</time>
      </trkpt>
      <trkpt lat="44.657370" lon="6.904048">
        <ele>2955.1</ele>
        <time>2015-07-07T10:26:24Z</time>
      </trkpt>
      <trkpt lat="44.657328" lon="6.904142">
        <ele>2958.2</ele>
        <time>2015-07-07T10:29:23Z</time>
      </trkpt>
      <trkpt lat="44.657315" lon="6.904157">
        <ele>2959.2</ele>
        <time>2015-07-07T10:29:24Z</time>
      </trkpt>
      <trkpt lat="44.657245" lon="6.904360">
        <ele>2965.6</ele>
        <time>2015-07-07T10:29:50Z</time>
      </trkpt>
      <trkpt lat="44.657193" lon="6.904463">
        <ele>2970.4</ele>
        <time>2015-07-07T10:30:05Z</time>
      </trkpt>
      <trkpt lat="44.657165" lon="6.904582">
        <ele>2973.1</ele>
        <time>2015-07-07T10:30:19Z</time>
      </trkpt>
      <trkpt lat="44.657157" lon="6.904700">
        <ele>2973.7</ele>
        <time>2015-07-07T10:30:38Z</time>
      </trkpt>
      <trkpt lat="44.657152" lon="6.904707">
        <ele>2974.3</ele>
        <time>2015-07-07T10:30:39Z</time>
      </trkpt>
      <trkpt lat="44.657098" lon="6.904925">
        <ele>2979.0</ele>
        <time>2015-07-07T10:31:13Z</time>
      </trkpt>
      <trkpt lat="44.657067" lon="6.905043">
        <ele>2982.2</ele>
        <time>2015-07-07T10:31:29Z</time>
      </trkpt>
      <trkpt lat="44.657077" lon="6.905167">
        <ele>2981.9</ele>
        <time>2015-07-07T10:31:47Z</time>
      </trkpt>
      <trkpt lat="44.657080" lon="6.905177">
        <ele>2981.7</ele>
        <time>2015-07-07T10:31:48Z</time>
      </trkpt>
      <trkpt lat="44.657063" lon="6.905407">
        <ele>2984.4</ele>
        <time>2015-07-07T10:32:22Z</time>
      </trkpt>
      <trkpt lat="44.657037" lon="6.905522">
        <ele>2987.3</ele>
        <time>2015-07-07T10:32:56Z</time>
      </trkpt>
      <trkpt lat="44.657033" lon="6.905527">
        <ele>2987.6</ele>
        <time>2015-07-07T10:32:57Z</time>
      </trkpt>
      <trkpt lat="44.656937" lon="6.905710">
        <ele>2997.0</ele>
        <time>2015-07-07T10:34:12Z</time>
      </trkpt>
      <trkpt lat="44.656940" lon="6.905733">
        <ele>2996.9</ele>
        <time>2015-07-07T10:34:13Z</time>
      </trkpt>
      <trkpt lat="44.656815" lon="6.905882">
        <ele>3008.4</ele>
        <time>2015-07-07T10:35:01Z</time>
      </trkpt>
      <trkpt lat="44.656792" lon="6.906000">
        <ele>3011.6</ele>
        <time>2015-07-07T10:35:48Z</time>
      </trkpt>
      <trkpt lat="44.656790" lon="6.906005">
        <ele>3012.0</ele>
        <time>2015-07-07T10:35:49Z</time>
      </trkpt>
      <trkpt lat="44.656783" lon="6.906130">
        <ele>3013.7</ele>
        <time>2015-07-07T10:36:57Z</time>
      </trkpt>
      <trkpt lat="44.656733" lon="6.906355">
        <ele>3020.5</ele>
        <time>2015-07-07T10:37:36Z</time>
      </trkpt>
      <trkpt lat="44.656748" lon="6.906478">
        <ele>3020.5</ele>
        <time>2015-07-07T10:38:02Z</time>
      </trkpt>
      <trkpt lat="44.656747" lon="6.906485">
        <ele>3020.6</ele>
        <time>2015-07-07T10:38:03Z</time>
      </trkpt>
      <trkpt lat="44.656725" lon="6.906708">
        <ele>3024.6</ele>
        <time>2015-07-07T10:38:58Z</time>
      </trkpt>
      <trkpt lat="44.656703" lon="6.906815">
        <ele>3026.6</ele>
        <time>2015-07-07T10:39:41Z</time>
      </trkpt>
      <trkpt lat="44.656715" lon="6.906840">
        <ele>3025.4</ele>
        <time>2015-07-07T10:39:42Z</time>
      </trkpt>
      <trkpt lat="44.656753" lon="6.907043">
        <ele>3022.0</ele>
        <time>2015-07-07T10:40:54Z</time>
      </trkpt>
      <trkpt lat="44.656755" lon="6.907045">
        <ele>3022.0</ele>
        <time>2015-07-07T10:40:55Z</time>
      </trkpt>
    </trkseg>
  </trk>
</gpx>
